<?xml version="1.0" encoding="UTF-8" standalone="no" ?>
<gpx xmlns="http://www.topografix.com/GPX/1/1" xmlns:xsi="http://www.w3.org/2001/XMLSchema-instance" xsi:schemaLocation="http://www.topografix.com/GPX/1/1 http://www.topografix.com/GPX/1/1/gpx.xsd" version="1.1" creator="VisuGPX - https://www.visugpx.com">
  <metadata>
    <name>83-Me-Thoronet</name>
    <desc><![CDATA[83-Me-Thoronet : Anchoïade
2022-04-13]]></desc>
  </metadata>
  <trk>
    <name><![CDATA[2022-04-13-Me-Thoronet]]></name>
    <extensions>
      <line xmlns="http://www.topografix.com/GPX/gpx_style/0/2">
        <width>4</width>
      </line>
    </extensions>
    <trkseg>
      <trkpt lat="43.45871" lon="6.29464">
        <ele>194.5</ele>
        <time>2022-04-13T11:55:31.000Z</time>
      </trkpt>
      <trkpt lat="43.45871" lon="6.29464">
        <ele>194.5</ele>
        <time>2022-04-13T11:55:32.000Z</time>
      </trkpt>
      <trkpt lat="43.45876" lon="6.29464">
        <ele>195.1</ele>
        <time>2022-04-13T11:57:06.000Z</time>
      </trkpt>
      <trkpt lat="43.45879" lon="6.29459">
        <ele>195</ele>
        <time>2022-04-13T11:57:16.000Z</time>
      </trkpt>
      <trkpt lat="43.45883" lon="6.29455">
        <ele>195.4</ele>
        <time>2022-04-13T11:57:25.000Z</time>
      </trkpt>
      <trkpt lat="43.45885" lon="6.29449">
        <ele>195.6</ele>
        <time>2022-04-13T11:57:33.000Z</time>
      </trkpt>
      <trkpt lat="43.45885" lon="6.29443">
        <ele>195.7</ele>
        <time>2022-04-13T11:57:47.000Z</time>
      </trkpt>
      <trkpt lat="43.45887" lon="6.29436">
        <ele>195.6</ele>
        <time>2022-04-13T11:57:53.000Z</time>
      </trkpt>
      <trkpt lat="43.4589" lon="6.2943">
        <ele>195.6</ele>
        <time>2022-04-13T11:58:00.000Z</time>
      </trkpt>
      <trkpt lat="43.45892" lon="6.29424">
        <ele>196</ele>
        <time>2022-04-13T11:58:07.000Z</time>
      </trkpt>
      <trkpt lat="43.45894" lon="6.29418">
        <ele>196.7</ele>
        <time>2022-04-13T11:58:16.000Z</time>
      </trkpt>
      <trkpt lat="43.45896" lon="6.29413">
        <ele>196.9</ele>
        <time>2022-04-13T11:58:24.000Z</time>
      </trkpt>
      <trkpt lat="43.45899" lon="6.29407">
        <ele>197.3</ele>
        <time>2022-04-13T11:58:34.000Z</time>
      </trkpt>
      <trkpt lat="43.45901" lon="6.29401">
        <ele>197.4</ele>
        <time>2022-04-13T11:58:43.000Z</time>
      </trkpt>
      <trkpt lat="43.45903" lon="6.29395">
        <ele>197.9</ele>
        <time>2022-04-13T11:58:50.000Z</time>
      </trkpt>
      <trkpt lat="43.45905" lon="6.29389">
        <ele>198.2</ele>
        <time>2022-04-13T11:58:55.000Z</time>
      </trkpt>
      <trkpt lat="43.45908" lon="6.29383">
        <ele>198.3</ele>
        <time>2022-04-13T11:59:03.000Z</time>
      </trkpt>
      <trkpt lat="43.45912" lon="6.29379">
        <ele>198.2</ele>
        <time>2022-04-13T11:59:19.000Z</time>
      </trkpt>
      <trkpt lat="43.45916" lon="6.29382">
        <ele>197.9</ele>
        <time>2022-04-13T11:59:39.000Z</time>
      </trkpt>
      <trkpt lat="43.4592" lon="6.29386">
        <ele>197.8</ele>
        <time>2022-04-13T11:59:50.000Z</time>
      </trkpt>
      <trkpt lat="43.45924" lon="6.2939">
        <ele>198.3</ele>
        <time>2022-04-13T12:00:02.000Z</time>
      </trkpt>
      <trkpt lat="43.45927" lon="6.29396">
        <ele>198.1</ele>
        <time>2022-04-13T12:00:10.000Z</time>
      </trkpt>
      <trkpt lat="43.45929" lon="6.29401">
        <ele>198</ele>
        <time>2022-04-13T12:00:16.000Z</time>
      </trkpt>
      <trkpt lat="43.45931" lon="6.29407">
        <ele>198.4</ele>
        <time>2022-04-13T12:00:22.000Z</time>
      </trkpt>
      <trkpt lat="43.45933" lon="6.29414">
        <ele>198.5</ele>
        <time>2022-04-13T12:00:28.000Z</time>
      </trkpt>
      <trkpt lat="43.45935" lon="6.2942">
        <ele>198.9</ele>
        <time>2022-04-13T12:00:34.000Z</time>
      </trkpt>
      <trkpt lat="43.45938" lon="6.29427">
        <ele>199.4</ele>
        <time>2022-04-13T12:00:39.000Z</time>
      </trkpt>
      <trkpt lat="43.45939" lon="6.29433">
        <ele>199.7</ele>
        <time>2022-04-13T12:00:44.000Z</time>
      </trkpt>
      <trkpt lat="43.4594" lon="6.2944">
        <ele>200.2</ele>
        <time>2022-04-13T12:00:50.000Z</time>
      </trkpt>
      <trkpt lat="43.4594" lon="6.29447">
        <ele>200.5</ele>
        <time>2022-04-13T12:00:55.000Z</time>
      </trkpt>
      <trkpt lat="43.45941" lon="6.29453">
        <ele>201</ele>
        <time>2022-04-13T12:01:00.000Z</time>
      </trkpt>
      <trkpt lat="43.45942" lon="6.2946">
        <ele>201.3</ele>
        <time>2022-04-13T12:01:04.000Z</time>
      </trkpt>
      <trkpt lat="43.45942" lon="6.29468">
        <ele>201.6</ele>
        <time>2022-04-13T12:01:09.000Z</time>
      </trkpt>
      <trkpt lat="43.45942" lon="6.29475">
        <ele>202.2</ele>
        <time>2022-04-13T12:01:15.000Z</time>
      </trkpt>
      <trkpt lat="43.45942" lon="6.29482">
        <ele>202.4</ele>
        <time>2022-04-13T12:01:20.000Z</time>
      </trkpt>
      <trkpt lat="43.45943" lon="6.2949">
        <ele>202.6</ele>
        <time>2022-04-13T12:01:25.000Z</time>
      </trkpt>
      <trkpt lat="43.45942" lon="6.29497">
        <ele>202.7</ele>
        <time>2022-04-13T12:01:30.000Z</time>
      </trkpt>
      <trkpt lat="43.45942" lon="6.29504">
        <ele>202.9</ele>
        <time>2022-04-13T12:01:35.000Z</time>
      </trkpt>
      <trkpt lat="43.45942" lon="6.29511">
        <ele>202.9</ele>
        <time>2022-04-13T12:01:39.000Z</time>
      </trkpt>
      <trkpt lat="43.45943" lon="6.29518">
        <ele>203</ele>
        <time>2022-04-13T12:01:43.000Z</time>
      </trkpt>
      <trkpt lat="43.45943" lon="6.29524">
        <ele>203.3</ele>
        <time>2022-04-13T12:01:48.000Z</time>
      </trkpt>
      <trkpt lat="43.45943" lon="6.29531">
        <ele>203.6</ele>
        <time>2022-04-13T12:01:53.000Z</time>
      </trkpt>
      <trkpt lat="43.45942" lon="6.29538">
        <ele>203.9</ele>
        <time>2022-04-13T12:01:58.000Z</time>
      </trkpt>
      <trkpt lat="43.45941" lon="6.29546">
        <ele>204.3</ele>
        <time>2022-04-13T12:02:02.000Z</time>
      </trkpt>
      <trkpt lat="43.45941" lon="6.29554">
        <ele>204.7</ele>
        <time>2022-04-13T12:02:06.000Z</time>
      </trkpt>
      <trkpt lat="43.4594" lon="6.2956">
        <ele>204.9</ele>
        <time>2022-04-13T12:02:10.000Z</time>
      </trkpt>
      <trkpt lat="43.45938" lon="6.29567">
        <ele>204.6</ele>
        <time>2022-04-13T12:02:14.000Z</time>
      </trkpt>
      <trkpt lat="43.45937" lon="6.29573">
        <ele>204.7</ele>
        <time>2022-04-13T12:02:17.000Z</time>
      </trkpt>
      <trkpt lat="43.45935" lon="6.2958">
        <ele>204.9</ele>
        <time>2022-04-13T12:02:21.000Z</time>
      </trkpt>
      <trkpt lat="43.45934" lon="6.29587">
        <ele>205.2</ele>
        <time>2022-04-13T12:02:26.000Z</time>
      </trkpt>
      <trkpt lat="43.45933" lon="6.29594">
        <ele>205.4</ele>
        <time>2022-04-13T12:02:30.000Z</time>
      </trkpt>
      <trkpt lat="43.45931" lon="6.29602">
        <ele>205.3</ele>
        <time>2022-04-13T12:02:34.000Z</time>
      </trkpt>
      <trkpt lat="43.45929" lon="6.29608">
        <ele>205.2</ele>
        <time>2022-04-13T12:02:38.000Z</time>
      </trkpt>
      <trkpt lat="43.45928" lon="6.29616">
        <ele>205.2</ele>
        <time>2022-04-13T12:02:42.000Z</time>
      </trkpt>
      <trkpt lat="43.45926" lon="6.29622">
        <ele>205.1</ele>
        <time>2022-04-13T12:02:46.000Z</time>
      </trkpt>
      <trkpt lat="43.45924" lon="6.29629">
        <ele>204.8</ele>
        <time>2022-04-13T12:02:50.000Z</time>
      </trkpt>
      <trkpt lat="43.45923" lon="6.29636">
        <ele>204.8</ele>
        <time>2022-04-13T12:02:54.000Z</time>
      </trkpt>
      <trkpt lat="43.45922" lon="6.29643">
        <ele>205</ele>
        <time>2022-04-13T12:02:58.000Z</time>
      </trkpt>
      <trkpt lat="43.45921" lon="6.29649">
        <ele>205.1</ele>
        <time>2022-04-13T12:03:02.000Z</time>
      </trkpt>
      <trkpt lat="43.4592" lon="6.29656">
        <ele>205.2</ele>
        <time>2022-04-13T12:03:06.000Z</time>
      </trkpt>
      <trkpt lat="43.45919" lon="6.29663">
        <ele>205.2</ele>
        <time>2022-04-13T12:03:10.000Z</time>
      </trkpt>
      <trkpt lat="43.45917" lon="6.2967">
        <ele>205.5</ele>
        <time>2022-04-13T12:03:14.000Z</time>
      </trkpt>
      <trkpt lat="43.45916" lon="6.29676">
        <ele>205.8</ele>
        <time>2022-04-13T12:03:18.000Z</time>
      </trkpt>
      <trkpt lat="43.45915" lon="6.29684">
        <ele>206</ele>
        <time>2022-04-13T12:03:22.000Z</time>
      </trkpt>
      <trkpt lat="43.45914" lon="6.29691">
        <ele>206.2</ele>
        <time>2022-04-13T12:03:26.000Z</time>
      </trkpt>
      <trkpt lat="43.45912" lon="6.29698">
        <ele>206.3</ele>
        <time>2022-04-13T12:03:30.000Z</time>
      </trkpt>
      <trkpt lat="43.4591" lon="6.29704">
        <ele>206.3</ele>
        <time>2022-04-13T12:03:34.000Z</time>
      </trkpt>
      <trkpt lat="43.45908" lon="6.2971">
        <ele>206.1</ele>
        <time>2022-04-13T12:03:38.000Z</time>
      </trkpt>
      <trkpt lat="43.45907" lon="6.29716">
        <ele>205.9</ele>
        <time>2022-04-13T12:03:42.000Z</time>
      </trkpt>
      <trkpt lat="43.45906" lon="6.29723">
        <ele>205.8</ele>
        <time>2022-04-13T12:03:46.000Z</time>
      </trkpt>
      <trkpt lat="43.45904" lon="6.29729">
        <ele>205.8</ele>
        <time>2022-04-13T12:03:50.000Z</time>
      </trkpt>
      <trkpt lat="43.45903" lon="6.29736">
        <ele>206</ele>
        <time>2022-04-13T12:03:54.000Z</time>
      </trkpt>
      <trkpt lat="43.45901" lon="6.29744">
        <ele>206.3</ele>
        <time>2022-04-13T12:03:59.000Z</time>
      </trkpt>
      <trkpt lat="43.459" lon="6.29752">
        <ele>206.1</ele>
        <time>2022-04-13T12:04:04.000Z</time>
      </trkpt>
      <trkpt lat="43.45898" lon="6.29758">
        <ele>206.1</ele>
        <time>2022-04-13T12:04:08.000Z</time>
      </trkpt>
      <trkpt lat="43.45897" lon="6.29765">
        <ele>206.1</ele>
        <time>2022-04-13T12:04:12.000Z</time>
      </trkpt>
      <trkpt lat="43.45895" lon="6.29772">
        <ele>206</ele>
        <time>2022-04-13T12:04:16.000Z</time>
      </trkpt>
      <trkpt lat="43.45894" lon="6.29779">
        <ele>206.1</ele>
        <time>2022-04-13T12:04:20.000Z</time>
      </trkpt>
      <trkpt lat="43.45892" lon="6.29786">
        <ele>206.3</ele>
        <time>2022-04-13T12:04:24.000Z</time>
      </trkpt>
      <trkpt lat="43.45892" lon="6.29792">
        <ele>206.6</ele>
        <time>2022-04-13T12:04:28.000Z</time>
      </trkpt>
      <trkpt lat="43.45891" lon="6.29799">
        <ele>206.7</ele>
        <time>2022-04-13T12:04:32.000Z</time>
      </trkpt>
      <trkpt lat="43.45889" lon="6.29805">
        <ele>206.7</ele>
        <time>2022-04-13T12:04:36.000Z</time>
      </trkpt>
      <trkpt lat="43.45887" lon="6.29812">
        <ele>206.7</ele>
        <time>2022-04-13T12:04:40.000Z</time>
      </trkpt>
      <trkpt lat="43.45886" lon="6.29819">
        <ele>206.8</ele>
        <time>2022-04-13T12:04:44.000Z</time>
      </trkpt>
      <trkpt lat="43.45884" lon="6.29826">
        <ele>206.8</ele>
        <time>2022-04-13T12:04:48.000Z</time>
      </trkpt>
      <trkpt lat="43.45883" lon="6.29832">
        <ele>206.8</ele>
        <time>2022-04-13T12:04:52.000Z</time>
      </trkpt>
      <trkpt lat="43.45884" lon="6.29839">
        <ele>206.7</ele>
        <time>2022-04-13T12:04:56.000Z</time>
      </trkpt>
      <trkpt lat="43.45885" lon="6.29846">
        <ele>206.6</ele>
        <time>2022-04-13T12:05:01.000Z</time>
      </trkpt>
      <trkpt lat="43.45888" lon="6.29851">
        <ele>207.1</ele>
        <time>2022-04-13T12:05:07.000Z</time>
      </trkpt>
      <trkpt lat="43.45893" lon="6.29852">
        <ele>207.5</ele>
        <time>2022-04-13T12:05:13.000Z</time>
      </trkpt>
      <trkpt lat="43.45898" lon="6.29848">
        <ele>207.6</ele>
        <time>2022-04-13T12:05:19.000Z</time>
      </trkpt>
      <trkpt lat="43.45901" lon="6.29844">
        <ele>207.7</ele>
        <time>2022-04-13T12:05:24.000Z</time>
      </trkpt>
      <trkpt lat="43.45905" lon="6.29839">
        <ele>207.6</ele>
        <time>2022-04-13T12:05:29.000Z</time>
      </trkpt>
      <trkpt lat="43.45909" lon="6.29834">
        <ele>207.9</ele>
        <time>2022-04-13T12:05:34.000Z</time>
      </trkpt>
      <trkpt lat="43.45913" lon="6.29829">
        <ele>208.2</ele>
        <time>2022-04-13T12:05:39.000Z</time>
      </trkpt>
      <trkpt lat="43.45916" lon="6.29824">
        <ele>208.4</ele>
        <time>2022-04-13T12:05:44.000Z</time>
      </trkpt>
      <trkpt lat="43.4592" lon="6.29819">
        <ele>208.4</ele>
        <time>2022-04-13T12:05:49.000Z</time>
      </trkpt>
      <trkpt lat="43.45923" lon="6.29814">
        <ele>208.4</ele>
        <time>2022-04-13T12:05:54.000Z</time>
      </trkpt>
      <trkpt lat="43.45927" lon="6.29808">
        <ele>208.3</ele>
        <time>2022-04-13T12:05:59.000Z</time>
      </trkpt>
      <trkpt lat="43.45931" lon="6.29803">
        <ele>208.2</ele>
        <time>2022-04-13T12:06:04.000Z</time>
      </trkpt>
      <trkpt lat="43.45934" lon="6.29798">
        <ele>208.7</ele>
        <time>2022-04-13T12:06:09.000Z</time>
      </trkpt>
      <trkpt lat="43.45938" lon="6.29793">
        <ele>209.1</ele>
        <time>2022-04-13T12:06:15.000Z</time>
      </trkpt>
      <trkpt lat="43.45941" lon="6.29788">
        <ele>209.7</ele>
        <time>2022-04-13T12:06:20.000Z</time>
      </trkpt>
      <trkpt lat="43.45944" lon="6.29783">
        <ele>210</ele>
        <time>2022-04-13T12:06:25.000Z</time>
      </trkpt>
      <trkpt lat="43.45947" lon="6.29778">
        <ele>210.5</ele>
        <time>2022-04-13T12:06:30.000Z</time>
      </trkpt>
      <trkpt lat="43.4595" lon="6.29772">
        <ele>211</ele>
        <time>2022-04-13T12:06:35.000Z</time>
      </trkpt>
      <trkpt lat="43.45953" lon="6.29766">
        <ele>211.8</ele>
        <time>2022-04-13T12:06:40.000Z</time>
      </trkpt>
      <trkpt lat="43.45956" lon="6.2976">
        <ele>212.4</ele>
        <time>2022-04-13T12:06:45.000Z</time>
      </trkpt>
      <trkpt lat="43.45959" lon="6.29754">
        <ele>212.9</ele>
        <time>2022-04-13T12:06:50.000Z</time>
      </trkpt>
      <trkpt lat="43.45962" lon="6.29747">
        <ele>213.3</ele>
        <time>2022-04-13T12:06:55.000Z</time>
      </trkpt>
      <trkpt lat="43.45965" lon="6.29741">
        <ele>213.9</ele>
        <time>2022-04-13T12:07:00.000Z</time>
      </trkpt>
      <trkpt lat="43.45968" lon="6.29736">
        <ele>214.3</ele>
        <time>2022-04-13T12:07:04.000Z</time>
      </trkpt>
      <trkpt lat="43.45971" lon="6.29731">
        <ele>214.5</ele>
        <time>2022-04-13T12:07:08.000Z</time>
      </trkpt>
      <trkpt lat="43.45974" lon="6.29726">
        <ele>214.7</ele>
        <time>2022-04-13T12:07:12.000Z</time>
      </trkpt>
      <trkpt lat="43.45977" lon="6.29722">
        <ele>215.1</ele>
        <time>2022-04-13T12:07:16.000Z</time>
      </trkpt>
      <trkpt lat="43.4598" lon="6.29716">
        <ele>215.6</ele>
        <time>2022-04-13T12:07:21.000Z</time>
      </trkpt>
      <trkpt lat="43.45983" lon="6.29711">
        <ele>215.9</ele>
        <time>2022-04-13T12:07:25.000Z</time>
      </trkpt>
      <trkpt lat="43.45986" lon="6.29706">
        <ele>216.1</ele>
        <time>2022-04-13T12:07:29.000Z</time>
      </trkpt>
      <trkpt lat="43.4599" lon="6.297">
        <ele>216.3</ele>
        <time>2022-04-13T12:07:34.000Z</time>
      </trkpt>
      <trkpt lat="43.45993" lon="6.29694">
        <ele>216.8</ele>
        <time>2022-04-13T12:07:39.000Z</time>
      </trkpt>
      <trkpt lat="43.45997" lon="6.29689">
        <ele>217.1</ele>
        <time>2022-04-13T12:07:44.000Z</time>
      </trkpt>
      <trkpt lat="43.46" lon="6.29683">
        <ele>217.8</ele>
        <time>2022-04-13T12:07:49.000Z</time>
      </trkpt>
      <trkpt lat="43.46004" lon="6.29678">
        <ele>218.5</ele>
        <time>2022-04-13T12:07:54.000Z</time>
      </trkpt>
      <trkpt lat="43.46007" lon="6.29672">
        <ele>218.9</ele>
        <time>2022-04-13T12:07:59.000Z</time>
      </trkpt>
      <trkpt lat="43.46011" lon="6.29667">
        <ele>219.3</ele>
        <time>2022-04-13T12:08:04.000Z</time>
      </trkpt>
      <trkpt lat="43.46016" lon="6.29663">
        <ele>219.8</ele>
        <time>2022-04-13T12:08:09.000Z</time>
      </trkpt>
      <trkpt lat="43.46019" lon="6.29657">
        <ele>220.3</ele>
        <time>2022-04-13T12:08:14.000Z</time>
      </trkpt>
      <trkpt lat="43.46021" lon="6.2965">
        <ele>221.1</ele>
        <time>2022-04-13T12:08:19.000Z</time>
      </trkpt>
      <trkpt lat="43.46023" lon="6.29645">
        <ele>221.4</ele>
        <time>2022-04-13T12:08:23.000Z</time>
      </trkpt>
      <trkpt lat="43.46026" lon="6.2964">
        <ele>221.6</ele>
        <time>2022-04-13T12:08:27.000Z</time>
      </trkpt>
      <trkpt lat="43.46029" lon="6.29633">
        <ele>221.8</ele>
        <time>2022-04-13T12:08:32.000Z</time>
      </trkpt>
      <trkpt lat="43.46032" lon="6.29627">
        <ele>222.1</ele>
        <time>2022-04-13T12:08:37.000Z</time>
      </trkpt>
      <trkpt lat="43.46034" lon="6.29622">
        <ele>222.3</ele>
        <time>2022-04-13T12:08:42.000Z</time>
      </trkpt>
      <trkpt lat="43.46037" lon="6.29616">
        <ele>222.6</ele>
        <time>2022-04-13T12:08:47.000Z</time>
      </trkpt>
      <trkpt lat="43.4604" lon="6.29612">
        <ele>223</ele>
        <time>2022-04-13T12:08:52.000Z</time>
      </trkpt>
      <trkpt lat="43.46044" lon="6.29606">
        <ele>223.2</ele>
        <time>2022-04-13T12:08:57.000Z</time>
      </trkpt>
      <trkpt lat="43.46047" lon="6.296">
        <ele>223.7</ele>
        <time>2022-04-13T12:09:02.000Z</time>
      </trkpt>
      <trkpt lat="43.4605" lon="6.29594">
        <ele>224.4</ele>
        <time>2022-04-13T12:09:07.000Z</time>
      </trkpt>
      <trkpt lat="43.46053" lon="6.29587">
        <ele>225</ele>
        <time>2022-04-13T12:09:12.000Z</time>
      </trkpt>
      <trkpt lat="43.46056" lon="6.29581">
        <ele>225.5</ele>
        <time>2022-04-13T12:09:17.000Z</time>
      </trkpt>
      <trkpt lat="43.46059" lon="6.29575">
        <ele>226</ele>
        <time>2022-04-13T12:09:22.000Z</time>
      </trkpt>
      <trkpt lat="43.46062" lon="6.29569">
        <ele>227.1</ele>
        <time>2022-04-13T12:09:27.000Z</time>
      </trkpt>
      <trkpt lat="43.46065" lon="6.29564">
        <ele>227.8</ele>
        <time>2022-04-13T12:09:32.000Z</time>
      </trkpt>
      <trkpt lat="43.46068" lon="6.29558">
        <ele>228.4</ele>
        <time>2022-04-13T12:09:37.000Z</time>
      </trkpt>
      <trkpt lat="43.46072" lon="6.29553">
        <ele>229</ele>
        <time>2022-04-13T12:09:42.000Z</time>
      </trkpt>
      <trkpt lat="43.46074" lon="6.29547">
        <ele>229.6</ele>
        <time>2022-04-13T12:09:47.000Z</time>
      </trkpt>
      <trkpt lat="43.46077" lon="6.29541">
        <ele>230.3</ele>
        <time>2022-04-13T12:09:52.000Z</time>
      </trkpt>
      <trkpt lat="43.4608" lon="6.29535">
        <ele>231</ele>
        <time>2022-04-13T12:09:57.000Z</time>
      </trkpt>
      <trkpt lat="43.46083" lon="6.2953">
        <ele>231.4</ele>
        <time>2022-04-13T12:10:02.000Z</time>
      </trkpt>
      <trkpt lat="43.46086" lon="6.29525">
        <ele>231.6</ele>
        <time>2022-04-13T12:10:06.000Z</time>
      </trkpt>
      <trkpt lat="43.4609" lon="6.29519">
        <ele>232.3</ele>
        <time>2022-04-13T12:10:11.000Z</time>
      </trkpt>
      <trkpt lat="43.46093" lon="6.29514">
        <ele>232.6</ele>
        <time>2022-04-13T12:10:15.000Z</time>
      </trkpt>
      <trkpt lat="43.46096" lon="6.29509">
        <ele>233</ele>
        <time>2022-04-13T12:10:19.000Z</time>
      </trkpt>
      <trkpt lat="43.46099" lon="6.29504">
        <ele>233.3</ele>
        <time>2022-04-13T12:10:23.000Z</time>
      </trkpt>
      <trkpt lat="43.46102" lon="6.29499">
        <ele>233.5</ele>
        <time>2022-04-13T12:10:27.000Z</time>
      </trkpt>
      <trkpt lat="43.46105" lon="6.29494">
        <ele>233.9</ele>
        <time>2022-04-13T12:10:31.000Z</time>
      </trkpt>
      <trkpt lat="43.46108" lon="6.29489">
        <ele>234.3</ele>
        <time>2022-04-13T12:10:35.000Z</time>
      </trkpt>
      <trkpt lat="43.46112" lon="6.29484">
        <ele>234.6</ele>
        <time>2022-04-13T12:10:39.000Z</time>
      </trkpt>
      <trkpt lat="43.46115" lon="6.2948">
        <ele>235</ele>
        <time>2022-04-13T12:10:43.000Z</time>
      </trkpt>
      <trkpt lat="43.46118" lon="6.29475">
        <ele>235.4</ele>
        <time>2022-04-13T12:10:47.000Z</time>
      </trkpt>
      <trkpt lat="43.46121" lon="6.2947">
        <ele>235.7</ele>
        <time>2022-04-13T12:10:51.000Z</time>
      </trkpt>
      <trkpt lat="43.46125" lon="6.29466">
        <ele>236</ele>
        <time>2022-04-13T12:10:55.000Z</time>
      </trkpt>
      <trkpt lat="43.46128" lon="6.29461">
        <ele>236.1</ele>
        <time>2022-04-13T12:10:59.000Z</time>
      </trkpt>
      <trkpt lat="43.46131" lon="6.29456">
        <ele>236.1</ele>
        <time>2022-04-13T12:11:03.000Z</time>
      </trkpt>
      <trkpt lat="43.46134" lon="6.29452">
        <ele>236.5</ele>
        <time>2022-04-13T12:11:07.000Z</time>
      </trkpt>
      <trkpt lat="43.46138" lon="6.29447">
        <ele>236.6</ele>
        <time>2022-04-13T12:11:11.000Z</time>
      </trkpt>
      <trkpt lat="43.46141" lon="6.29443">
        <ele>236.8</ele>
        <time>2022-04-13T12:11:15.000Z</time>
      </trkpt>
      <trkpt lat="43.46145" lon="6.29438">
        <ele>237</ele>
        <time>2022-04-13T12:11:19.000Z</time>
      </trkpt>
      <trkpt lat="43.46149" lon="6.29434">
        <ele>237</ele>
        <time>2022-04-13T12:11:23.000Z</time>
      </trkpt>
      <trkpt lat="43.46152" lon="6.29429">
        <ele>237.1</ele>
        <time>2022-04-13T12:11:27.000Z</time>
      </trkpt>
      <trkpt lat="43.46156" lon="6.29425">
        <ele>237.2</ele>
        <time>2022-04-13T12:11:31.000Z</time>
      </trkpt>
      <trkpt lat="43.46159" lon="6.29421">
        <ele>237.4</ele>
        <time>2022-04-13T12:11:35.000Z</time>
      </trkpt>
      <trkpt lat="43.46162" lon="6.29416">
        <ele>237.7</ele>
        <time>2022-04-13T12:11:39.000Z</time>
      </trkpt>
      <trkpt lat="43.46166" lon="6.2941">
        <ele>237.5</ele>
        <time>2022-04-13T12:11:44.000Z</time>
      </trkpt>
      <trkpt lat="43.4617" lon="6.29405">
        <ele>237.6</ele>
        <time>2022-04-13T12:11:49.000Z</time>
      </trkpt>
      <trkpt lat="43.46174" lon="6.294">
        <ele>237.6</ele>
        <time>2022-04-13T12:11:54.000Z</time>
      </trkpt>
      <trkpt lat="43.46177" lon="6.29396">
        <ele>237.4</ele>
        <time>2022-04-13T12:11:58.000Z</time>
      </trkpt>
      <trkpt lat="43.46181" lon="6.29391">
        <ele>237.2</ele>
        <time>2022-04-13T12:12:02.000Z</time>
      </trkpt>
      <trkpt lat="43.46185" lon="6.29387">
        <ele>237.3</ele>
        <time>2022-04-13T12:12:06.000Z</time>
      </trkpt>
      <trkpt lat="43.46189" lon="6.29383">
        <ele>237.2</ele>
        <time>2022-04-13T12:12:10.000Z</time>
      </trkpt>
      <trkpt lat="43.46193" lon="6.29378">
        <ele>237.1</ele>
        <time>2022-04-13T12:12:14.000Z</time>
      </trkpt>
      <trkpt lat="43.46196" lon="6.29374">
        <ele>237</ele>
        <time>2022-04-13T12:12:18.000Z</time>
      </trkpt>
      <trkpt lat="43.462" lon="6.29369">
        <ele>237.1</ele>
        <time>2022-04-13T12:12:23.000Z</time>
      </trkpt>
      <trkpt lat="43.46204" lon="6.29365">
        <ele>237.2</ele>
        <time>2022-04-13T12:12:27.000Z</time>
      </trkpt>
      <trkpt lat="43.46208" lon="6.2936">
        <ele>237.4</ele>
        <time>2022-04-13T12:12:31.000Z</time>
      </trkpt>
      <trkpt lat="43.46211" lon="6.29356">
        <ele>237.6</ele>
        <time>2022-04-13T12:12:35.000Z</time>
      </trkpt>
      <trkpt lat="43.46214" lon="6.29351">
        <ele>237.8</ele>
        <time>2022-04-13T12:12:39.000Z</time>
      </trkpt>
      <trkpt lat="43.46218" lon="6.29347">
        <ele>237.9</ele>
        <time>2022-04-13T12:12:43.000Z</time>
      </trkpt>
      <trkpt lat="43.46221" lon="6.29343">
        <ele>238</ele>
        <time>2022-04-13T12:12:47.000Z</time>
      </trkpt>
      <trkpt lat="43.46225" lon="6.29338">
        <ele>238</ele>
        <time>2022-04-13T12:12:51.000Z</time>
      </trkpt>
      <trkpt lat="43.46228" lon="6.29334">
        <ele>237.9</ele>
        <time>2022-04-13T12:12:55.000Z</time>
      </trkpt>
      <trkpt lat="43.46232" lon="6.2933">
        <ele>238.3</ele>
        <time>2022-04-13T12:12:59.000Z</time>
      </trkpt>
      <trkpt lat="43.46236" lon="6.29325">
        <ele>238.2</ele>
        <time>2022-04-13T12:13:03.000Z</time>
      </trkpt>
      <trkpt lat="43.4624" lon="6.2932">
        <ele>238.1</ele>
        <time>2022-04-13T12:13:07.000Z</time>
      </trkpt>
      <trkpt lat="43.46244" lon="6.29316">
        <ele>237.9</ele>
        <time>2022-04-13T12:13:11.000Z</time>
      </trkpt>
      <trkpt lat="43.46247" lon="6.29312">
        <ele>238.1</ele>
        <time>2022-04-13T12:13:15.000Z</time>
      </trkpt>
      <trkpt lat="43.46251" lon="6.29308">
        <ele>238.1</ele>
        <time>2022-04-13T12:13:19.000Z</time>
      </trkpt>
      <trkpt lat="43.46255" lon="6.29304">
        <ele>238.2</ele>
        <time>2022-04-13T12:13:23.000Z</time>
      </trkpt>
      <trkpt lat="43.46258" lon="6.293">
        <ele>238.3</ele>
        <time>2022-04-13T12:13:27.000Z</time>
      </trkpt>
      <trkpt lat="43.46263" lon="6.29295">
        <ele>238.4</ele>
        <time>2022-04-13T12:13:32.000Z</time>
      </trkpt>
      <trkpt lat="43.46267" lon="6.2929">
        <ele>238.3</ele>
        <time>2022-04-13T12:13:37.000Z</time>
      </trkpt>
      <trkpt lat="43.46271" lon="6.29286">
        <ele>238.2</ele>
        <time>2022-04-13T12:13:41.000Z</time>
      </trkpt>
      <trkpt lat="43.46275" lon="6.29282">
        <ele>238.4</ele>
        <time>2022-04-13T12:13:45.000Z</time>
      </trkpt>
      <trkpt lat="43.46278" lon="6.29279">
        <ele>238.5</ele>
        <time>2022-04-13T12:13:49.000Z</time>
      </trkpt>
      <trkpt lat="43.46282" lon="6.29275">
        <ele>238.5</ele>
        <time>2022-04-13T12:13:53.000Z</time>
      </trkpt>
      <trkpt lat="43.46286" lon="6.2927">
        <ele>238.5</ele>
        <time>2022-04-13T12:13:58.000Z</time>
      </trkpt>
      <trkpt lat="43.4629" lon="6.29266">
        <ele>238.4</ele>
        <time>2022-04-13T12:14:02.000Z</time>
      </trkpt>
      <trkpt lat="43.46294" lon="6.29261">
        <ele>238.4</ele>
        <time>2022-04-13T12:14:07.000Z</time>
      </trkpt>
      <trkpt lat="43.46297" lon="6.29256">
        <ele>238.6</ele>
        <time>2022-04-13T12:14:11.000Z</time>
      </trkpt>
      <trkpt lat="43.46301" lon="6.29252">
        <ele>238.8</ele>
        <time>2022-04-13T12:14:15.000Z</time>
      </trkpt>
      <trkpt lat="43.46304" lon="6.29247">
        <ele>238.9</ele>
        <time>2022-04-13T12:14:19.000Z</time>
      </trkpt>
      <trkpt lat="43.46307" lon="6.29242">
        <ele>238.8</ele>
        <time>2022-04-13T12:14:23.000Z</time>
      </trkpt>
      <trkpt lat="43.4631" lon="6.29237">
        <ele>238.7</ele>
        <time>2022-04-13T12:14:27.000Z</time>
      </trkpt>
      <trkpt lat="43.46314" lon="6.29232">
        <ele>238.8</ele>
        <time>2022-04-13T12:14:31.000Z</time>
      </trkpt>
      <trkpt lat="43.46317" lon="6.29227">
        <ele>238.9</ele>
        <time>2022-04-13T12:14:35.000Z</time>
      </trkpt>
      <trkpt lat="43.46321" lon="6.29222">
        <ele>238.7</ele>
        <time>2022-04-13T12:14:39.000Z</time>
      </trkpt>
      <trkpt lat="43.46324" lon="6.29217">
        <ele>238.7</ele>
        <time>2022-04-13T12:14:43.000Z</time>
      </trkpt>
      <trkpt lat="43.46327" lon="6.29212">
        <ele>238.4</ele>
        <time>2022-04-13T12:14:47.000Z</time>
      </trkpt>
      <trkpt lat="43.4633" lon="6.29206">
        <ele>238.2</ele>
        <time>2022-04-13T12:14:51.000Z</time>
      </trkpt>
      <trkpt lat="43.46334" lon="6.29201">
        <ele>238.2</ele>
        <time>2022-04-13T12:14:55.000Z</time>
      </trkpt>
      <trkpt lat="43.46337" lon="6.29197">
        <ele>238.2</ele>
        <time>2022-04-13T12:14:59.000Z</time>
      </trkpt>
      <trkpt lat="43.4634" lon="6.29191">
        <ele>238.2</ele>
        <time>2022-04-13T12:15:03.000Z</time>
      </trkpt>
      <trkpt lat="43.46343" lon="6.29187">
        <ele>238.3</ele>
        <time>2022-04-13T12:15:07.000Z</time>
      </trkpt>
      <trkpt lat="43.46347" lon="6.29182">
        <ele>238.5</ele>
        <time>2022-04-13T12:15:12.000Z</time>
      </trkpt>
      <trkpt lat="43.46351" lon="6.29176">
        <ele>238.7</ele>
        <time>2022-04-13T12:15:17.000Z</time>
      </trkpt>
      <trkpt lat="43.46354" lon="6.29171">
        <ele>238.6</ele>
        <time>2022-04-13T12:15:21.000Z</time>
      </trkpt>
      <trkpt lat="43.46358" lon="6.29166">
        <ele>238.7</ele>
        <time>2022-04-13T12:15:26.000Z</time>
      </trkpt>
      <trkpt lat="43.46362" lon="6.2916">
        <ele>238.9</ele>
        <time>2022-04-13T12:15:31.000Z</time>
      </trkpt>
      <trkpt lat="43.46366" lon="6.29155">
        <ele>239</ele>
        <time>2022-04-13T12:15:36.000Z</time>
      </trkpt>
      <trkpt lat="43.4637" lon="6.2915">
        <ele>239.1</ele>
        <time>2022-04-13T12:15:40.000Z</time>
      </trkpt>
      <trkpt lat="43.46373" lon="6.29146">
        <ele>239.1</ele>
        <time>2022-04-13T12:15:44.000Z</time>
      </trkpt>
      <trkpt lat="43.46377" lon="6.29142">
        <ele>239</ele>
        <time>2022-04-13T12:15:48.000Z</time>
      </trkpt>
      <trkpt lat="43.46381" lon="6.29138">
        <ele>238.9</ele>
        <time>2022-04-13T12:15:52.000Z</time>
      </trkpt>
      <trkpt lat="43.46384" lon="6.29133">
        <ele>238.6</ele>
        <time>2022-04-13T12:15:56.000Z</time>
      </trkpt>
      <trkpt lat="43.46387" lon="6.29127">
        <ele>238.4</ele>
        <time>2022-04-13T12:16:00.000Z</time>
      </trkpt>
      <trkpt lat="43.46389" lon="6.29121">
        <ele>238.4</ele>
        <time>2022-04-13T12:16:04.000Z</time>
      </trkpt>
      <trkpt lat="43.4639" lon="6.29115">
        <ele>238.5</ele>
        <time>2022-04-13T12:16:08.000Z</time>
      </trkpt>
      <trkpt lat="43.46391" lon="6.29108">
        <ele>238.4</ele>
        <time>2022-04-13T12:16:12.000Z</time>
      </trkpt>
      <trkpt lat="43.46393" lon="6.29101">
        <ele>238.2</ele>
        <time>2022-04-13T12:16:16.000Z</time>
      </trkpt>
      <trkpt lat="43.46395" lon="6.29095">
        <ele>238.1</ele>
        <time>2022-04-13T12:16:20.000Z</time>
      </trkpt>
      <trkpt lat="43.46397" lon="6.29088">
        <ele>237.6</ele>
        <time>2022-04-13T12:16:24.000Z</time>
      </trkpt>
      <trkpt lat="43.46399" lon="6.29082">
        <ele>237.3</ele>
        <time>2022-04-13T12:16:28.000Z</time>
      </trkpt>
      <trkpt lat="43.464" lon="6.29075">
        <ele>237.1</ele>
        <time>2022-04-13T12:16:32.000Z</time>
      </trkpt>
      <trkpt lat="43.46403" lon="6.29068">
        <ele>236.9</ele>
        <time>2022-04-13T12:16:36.000Z</time>
      </trkpt>
      <trkpt lat="43.46405" lon="6.29062">
        <ele>236.8</ele>
        <time>2022-04-13T12:16:40.000Z</time>
      </trkpt>
      <trkpt lat="43.46408" lon="6.29055">
        <ele>236.4</ele>
        <time>2022-04-13T12:16:44.000Z</time>
      </trkpt>
      <trkpt lat="43.4641" lon="6.29049">
        <ele>236</ele>
        <time>2022-04-13T12:16:48.000Z</time>
      </trkpt>
      <trkpt lat="43.46413" lon="6.29043">
        <ele>235.6</ele>
        <time>2022-04-13T12:16:52.000Z</time>
      </trkpt>
      <trkpt lat="43.46415" lon="6.29036">
        <ele>235.2</ele>
        <time>2022-04-13T12:16:57.000Z</time>
      </trkpt>
      <trkpt lat="43.46418" lon="6.2903">
        <ele>234.9</ele>
        <time>2022-04-13T12:17:01.000Z</time>
      </trkpt>
      <trkpt lat="43.4642" lon="6.29024">
        <ele>234.8</ele>
        <time>2022-04-13T12:17:04.000Z</time>
      </trkpt>
      <trkpt lat="43.46421" lon="6.29017">
        <ele>234.8</ele>
        <time>2022-04-13T12:17:08.000Z</time>
      </trkpt>
      <trkpt lat="43.46423" lon="6.29009">
        <ele>234.6</ele>
        <time>2022-04-13T12:17:12.000Z</time>
      </trkpt>
      <trkpt lat="43.46425" lon="6.29002">
        <ele>234.4</ele>
        <time>2022-04-13T12:17:16.000Z</time>
      </trkpt>
      <trkpt lat="43.46427" lon="6.28995">
        <ele>234</ele>
        <time>2022-04-13T12:17:20.000Z</time>
      </trkpt>
      <trkpt lat="43.46427" lon="6.28988">
        <ele>233.6</ele>
        <time>2022-04-13T12:17:24.000Z</time>
      </trkpt>
      <trkpt lat="43.46428" lon="6.28981">
        <ele>233.1</ele>
        <time>2022-04-13T12:17:28.000Z</time>
      </trkpt>
      <trkpt lat="43.46429" lon="6.28974">
        <ele>233</ele>
        <time>2022-04-13T12:17:32.000Z</time>
      </trkpt>
      <trkpt lat="43.4643" lon="6.28968">
        <ele>232.9</ele>
        <time>2022-04-13T12:17:36.000Z</time>
      </trkpt>
      <trkpt lat="43.46432" lon="6.28961">
        <ele>232.6</ele>
        <time>2022-04-13T12:17:40.000Z</time>
      </trkpt>
      <trkpt lat="43.46433" lon="6.28954">
        <ele>231.4</ele>
        <time>2022-04-13T12:17:51.000Z</time>
      </trkpt>
      <trkpt lat="43.46434" lon="6.28947">
        <ele>230.8</ele>
        <time>2022-04-13T12:17:56.000Z</time>
      </trkpt>
      <trkpt lat="43.46436" lon="6.2894">
        <ele>230.3</ele>
        <time>2022-04-13T12:18:01.000Z</time>
      </trkpt>
      <trkpt lat="43.46436" lon="6.28933">
        <ele>229.7</ele>
        <time>2022-04-13T12:18:06.000Z</time>
      </trkpt>
      <trkpt lat="43.46437" lon="6.28927">
        <ele>229.1</ele>
        <time>2022-04-13T12:18:10.000Z</time>
      </trkpt>
      <trkpt lat="43.46439" lon="6.28921">
        <ele>228.7</ele>
        <time>2022-04-13T12:18:14.000Z</time>
      </trkpt>
      <trkpt lat="43.46441" lon="6.28914">
        <ele>228.4</ele>
        <time>2022-04-13T12:18:18.000Z</time>
      </trkpt>
      <trkpt lat="43.46443" lon="6.28908">
        <ele>228</ele>
        <time>2022-04-13T12:18:22.000Z</time>
      </trkpt>
      <trkpt lat="43.46445" lon="6.28902">
        <ele>227.6</ele>
        <time>2022-04-13T12:18:26.000Z</time>
      </trkpt>
      <trkpt lat="43.46446" lon="6.28896">
        <ele>227.3</ele>
        <time>2022-04-13T12:18:30.000Z</time>
      </trkpt>
      <trkpt lat="43.46448" lon="6.2889">
        <ele>227</ele>
        <time>2022-04-13T12:18:34.000Z</time>
      </trkpt>
      <trkpt lat="43.46451" lon="6.28885">
        <ele>224.9</ele>
        <time>2022-04-13T12:19:30.000Z</time>
      </trkpt>
      <trkpt lat="43.4645" lon="6.28878">
        <ele>225.1</ele>
        <time>2022-04-13T12:22:06.000Z</time>
      </trkpt>
      <trkpt lat="43.46452" lon="6.28872">
        <ele>224.9</ele>
        <time>2022-04-13T12:22:12.000Z</time>
      </trkpt>
      <trkpt lat="43.46454" lon="6.28865">
        <ele>224.8</ele>
        <time>2022-04-13T12:22:17.000Z</time>
      </trkpt>
      <trkpt lat="43.46456" lon="6.28858">
        <ele>224.5</ele>
        <time>2022-04-13T12:22:22.000Z</time>
      </trkpt>
      <trkpt lat="43.46458" lon="6.28851">
        <ele>224.1</ele>
        <time>2022-04-13T12:22:27.000Z</time>
      </trkpt>
      <trkpt lat="43.4646" lon="6.28844">
        <ele>223.8</ele>
        <time>2022-04-13T12:22:32.000Z</time>
      </trkpt>
      <trkpt lat="43.46462" lon="6.28837">
        <ele>223.4</ele>
        <time>2022-04-13T12:22:37.000Z</time>
      </trkpt>
      <trkpt lat="43.46464" lon="6.2883">
        <ele>223</ele>
        <time>2022-04-13T12:22:42.000Z</time>
      </trkpt>
      <trkpt lat="43.46466" lon="6.28824">
        <ele>222.7</ele>
        <time>2022-04-13T12:22:46.000Z</time>
      </trkpt>
      <trkpt lat="43.46468" lon="6.28818">
        <ele>222.5</ele>
        <time>2022-04-13T12:22:50.000Z</time>
      </trkpt>
      <trkpt lat="43.4647" lon="6.28811">
        <ele>222.4</ele>
        <time>2022-04-13T12:22:54.000Z</time>
      </trkpt>
      <trkpt lat="43.46472" lon="6.28806">
        <ele>222.3</ele>
        <time>2022-04-13T12:22:58.000Z</time>
      </trkpt>
      <trkpt lat="43.46475" lon="6.288">
        <ele>222.2</ele>
        <time>2022-04-13T12:23:02.000Z</time>
      </trkpt>
      <trkpt lat="43.46477" lon="6.28794">
        <ele>222.1</ele>
        <time>2022-04-13T12:23:06.000Z</time>
      </trkpt>
      <trkpt lat="43.4648" lon="6.28789">
        <ele>222</ele>
        <time>2022-04-13T12:23:10.000Z</time>
      </trkpt>
      <trkpt lat="43.46482" lon="6.28783">
        <ele>221.9</ele>
        <time>2022-04-13T12:23:14.000Z</time>
      </trkpt>
      <trkpt lat="43.46484" lon="6.28776">
        <ele>221.8</ele>
        <time>2022-04-13T12:23:18.000Z</time>
      </trkpt>
      <trkpt lat="43.46487" lon="6.2877">
        <ele>221.7</ele>
        <time>2022-04-13T12:23:22.000Z</time>
      </trkpt>
      <trkpt lat="43.46489" lon="6.28764">
        <ele>221.6</ele>
        <time>2022-04-13T12:23:26.000Z</time>
      </trkpt>
      <trkpt lat="43.46491" lon="6.28758">
        <ele>221.5</ele>
        <time>2022-04-13T12:23:30.000Z</time>
      </trkpt>
      <trkpt lat="43.46493" lon="6.28752">
        <ele>221.5</ele>
        <time>2022-04-13T12:23:34.000Z</time>
      </trkpt>
      <trkpt lat="43.46496" lon="6.28746">
        <ele>221.4</ele>
        <time>2022-04-13T12:23:38.000Z</time>
      </trkpt>
      <trkpt lat="43.46498" lon="6.2874">
        <ele>221.4</ele>
        <time>2022-04-13T12:23:42.000Z</time>
      </trkpt>
      <trkpt lat="43.465" lon="6.28734">
        <ele>221.4</ele>
        <time>2022-04-13T12:23:46.000Z</time>
      </trkpt>
      <trkpt lat="43.46502" lon="6.28728">
        <ele>221.3</ele>
        <time>2022-04-13T12:23:50.000Z</time>
      </trkpt>
      <trkpt lat="43.46504" lon="6.28722">
        <ele>221.3</ele>
        <time>2022-04-13T12:23:54.000Z</time>
      </trkpt>
      <trkpt lat="43.46507" lon="6.28716">
        <ele>221.4</ele>
        <time>2022-04-13T12:23:58.000Z</time>
      </trkpt>
      <trkpt lat="43.4651" lon="6.2871">
        <ele>221.5</ele>
        <time>2022-04-13T12:24:02.000Z</time>
      </trkpt>
      <trkpt lat="43.46513" lon="6.28705">
        <ele>221.8</ele>
        <time>2022-04-13T12:24:06.000Z</time>
      </trkpt>
      <trkpt lat="43.46517" lon="6.287">
        <ele>222</ele>
        <time>2022-04-13T12:24:10.000Z</time>
      </trkpt>
      <trkpt lat="43.46521" lon="6.28696">
        <ele>222.2</ele>
        <time>2022-04-13T12:24:14.000Z</time>
      </trkpt>
      <trkpt lat="43.46525" lon="6.28692">
        <ele>222.3</ele>
        <time>2022-04-13T12:24:18.000Z</time>
      </trkpt>
      <trkpt lat="43.46529" lon="6.28689">
        <ele>222.3</ele>
        <time>2022-04-13T12:24:22.000Z</time>
      </trkpt>
      <trkpt lat="43.46534" lon="6.28685">
        <ele>222.4</ele>
        <time>2022-04-13T12:24:27.000Z</time>
      </trkpt>
      <trkpt lat="43.46538" lon="6.28683">
        <ele>222.5</ele>
        <time>2022-04-13T12:24:31.000Z</time>
      </trkpt>
      <trkpt lat="43.46542" lon="6.28679">
        <ele>222.7</ele>
        <time>2022-04-13T12:24:36.000Z</time>
      </trkpt>
      <trkpt lat="43.46546" lon="6.28676">
        <ele>222.7</ele>
        <time>2022-04-13T12:24:40.000Z</time>
      </trkpt>
      <trkpt lat="43.4655" lon="6.28672">
        <ele>222.8</ele>
        <time>2022-04-13T12:24:44.000Z</time>
      </trkpt>
      <trkpt lat="43.46554" lon="6.2867">
        <ele>222.8</ele>
        <time>2022-04-13T12:24:48.000Z</time>
      </trkpt>
      <trkpt lat="43.46558" lon="6.28666">
        <ele>222.8</ele>
        <time>2022-04-13T12:24:52.000Z</time>
      </trkpt>
      <trkpt lat="43.46563" lon="6.28662">
        <ele>222.9</ele>
        <time>2022-04-13T12:24:57.000Z</time>
      </trkpt>
      <trkpt lat="43.46567" lon="6.28658">
        <ele>222.9</ele>
        <time>2022-04-13T12:25:01.000Z</time>
      </trkpt>
      <trkpt lat="43.46572" lon="6.28654">
        <ele>222.8</ele>
        <time>2022-04-13T12:25:05.000Z</time>
      </trkpt>
      <trkpt lat="43.46577" lon="6.28649">
        <ele>222.8</ele>
        <time>2022-04-13T12:25:09.000Z</time>
      </trkpt>
      <trkpt lat="43.46581" lon="6.28645">
        <ele>222.8</ele>
        <time>2022-04-13T12:25:13.000Z</time>
      </trkpt>
      <trkpt lat="43.46585" lon="6.28641">
        <ele>222.7</ele>
        <time>2022-04-13T12:25:17.000Z</time>
      </trkpt>
      <trkpt lat="43.46589" lon="6.28637">
        <ele>222.5</ele>
        <time>2022-04-13T12:25:21.000Z</time>
      </trkpt>
      <trkpt lat="43.46593" lon="6.28633">
        <ele>222.3</ele>
        <time>2022-04-13T12:25:25.000Z</time>
      </trkpt>
      <trkpt lat="43.46598" lon="6.2863">
        <ele>221.9</ele>
        <time>2022-04-13T12:25:30.000Z</time>
      </trkpt>
      <trkpt lat="43.46602" lon="6.28626">
        <ele>221.5</ele>
        <time>2022-04-13T12:25:35.000Z</time>
      </trkpt>
      <trkpt lat="43.46607" lon="6.28624">
        <ele>221.1</ele>
        <time>2022-04-13T12:25:40.000Z</time>
      </trkpt>
      <trkpt lat="43.46611" lon="6.28621">
        <ele>220.8</ele>
        <time>2022-04-13T12:25:45.000Z</time>
      </trkpt>
      <trkpt lat="43.46615" lon="6.28616">
        <ele>220.3</ele>
        <time>2022-04-13T12:25:50.000Z</time>
      </trkpt>
      <trkpt lat="43.46619" lon="6.28613">
        <ele>219.8</ele>
        <time>2022-04-13T12:25:55.000Z</time>
      </trkpt>
      <trkpt lat="43.46624" lon="6.2861">
        <ele>219.5</ele>
        <time>2022-04-13T12:26:00.000Z</time>
      </trkpt>
      <trkpt lat="43.46629" lon="6.28607">
        <ele>218.8</ele>
        <time>2022-04-13T12:26:05.000Z</time>
      </trkpt>
      <trkpt lat="43.46632" lon="6.28602">
        <ele>218.1</ele>
        <time>2022-04-13T12:26:10.000Z</time>
      </trkpt>
      <trkpt lat="43.46636" lon="6.28598">
        <ele>217.6</ele>
        <time>2022-04-13T12:26:16.000Z</time>
      </trkpt>
      <trkpt lat="43.4664" lon="6.28593">
        <ele>217.2</ele>
        <time>2022-04-13T12:26:20.000Z</time>
      </trkpt>
      <trkpt lat="43.46644" lon="6.2859">
        <ele>217</ele>
        <time>2022-04-13T12:26:24.000Z</time>
      </trkpt>
      <trkpt lat="43.46649" lon="6.28588">
        <ele>216.7</ele>
        <time>2022-04-13T12:26:28.000Z</time>
      </trkpt>
      <trkpt lat="43.46653" lon="6.28585">
        <ele>216.3</ele>
        <time>2022-04-13T12:26:34.000Z</time>
      </trkpt>
      <trkpt lat="43.46656" lon="6.2858">
        <ele>215.9</ele>
        <time>2022-04-13T12:26:38.000Z</time>
      </trkpt>
      <trkpt lat="43.46661" lon="6.28577">
        <ele>215.6</ele>
        <time>2022-04-13T12:26:42.000Z</time>
      </trkpt>
      <trkpt lat="43.46665" lon="6.28573">
        <ele>215.2</ele>
        <time>2022-04-13T12:26:46.000Z</time>
      </trkpt>
      <trkpt lat="43.4667" lon="6.28569">
        <ele>214.8</ele>
        <time>2022-04-13T12:26:50.000Z</time>
      </trkpt>
      <trkpt lat="43.46675" lon="6.28567">
        <ele>214.5</ele>
        <time>2022-04-13T12:26:54.000Z</time>
      </trkpt>
      <trkpt lat="43.46679" lon="6.28566">
        <ele>214.2</ele>
        <time>2022-04-13T12:26:59.000Z</time>
      </trkpt>
      <trkpt lat="43.46684" lon="6.28566">
        <ele>214</ele>
        <time>2022-04-13T12:27:03.000Z</time>
      </trkpt>
      <trkpt lat="43.46689" lon="6.28566">
        <ele>213.9</ele>
        <time>2022-04-13T12:27:07.000Z</time>
      </trkpt>
      <trkpt lat="43.46694" lon="6.28566">
        <ele>213.7</ele>
        <time>2022-04-13T12:27:11.000Z</time>
      </trkpt>
      <trkpt lat="43.46699" lon="6.28566">
        <ele>213.7</ele>
        <time>2022-04-13T12:27:15.000Z</time>
      </trkpt>
      <trkpt lat="43.46704" lon="6.28568">
        <ele>213.6</ele>
        <time>2022-04-13T12:27:19.000Z</time>
      </trkpt>
      <trkpt lat="43.46709" lon="6.28569">
        <ele>213.7</ele>
        <time>2022-04-13T12:27:23.000Z</time>
      </trkpt>
      <trkpt lat="43.46714" lon="6.28571">
        <ele>213.9</ele>
        <time>2022-04-13T12:27:29.000Z</time>
      </trkpt>
      <trkpt lat="43.46718" lon="6.28571">
        <ele>214.2</ele>
        <time>2022-04-13T12:27:38.000Z</time>
      </trkpt>
      <trkpt lat="43.46721" lon="6.28576">
        <ele>214.4</ele>
        <time>2022-04-13T12:27:47.000Z</time>
      </trkpt>
      <trkpt lat="43.46722" lon="6.28583">
        <ele>214.6</ele>
        <time>2022-04-13T12:27:54.000Z</time>
      </trkpt>
      <trkpt lat="43.46721" lon="6.2859">
        <ele>214.6</ele>
        <time>2022-04-13T12:28:00.000Z</time>
      </trkpt>
      <trkpt lat="43.46718" lon="6.28596">
        <ele>214.6</ele>
        <time>2022-04-13T12:28:06.000Z</time>
      </trkpt>
      <trkpt lat="43.46716" lon="6.28602">
        <ele>214.7</ele>
        <time>2022-04-13T12:28:11.000Z</time>
      </trkpt>
      <trkpt lat="43.46713" lon="6.28608">
        <ele>214.7</ele>
        <time>2022-04-13T12:28:16.000Z</time>
      </trkpt>
      <trkpt lat="43.46711" lon="6.28614">
        <ele>214.7</ele>
        <time>2022-04-13T12:28:20.000Z</time>
      </trkpt>
      <trkpt lat="43.46709" lon="6.2862">
        <ele>214.5</ele>
        <time>2022-04-13T12:28:24.000Z</time>
      </trkpt>
      <trkpt lat="43.46706" lon="6.28625">
        <ele>214.2</ele>
        <time>2022-04-13T12:28:28.000Z</time>
      </trkpt>
      <trkpt lat="43.46703" lon="6.28631">
        <ele>213.7</ele>
        <time>2022-04-13T12:28:32.000Z</time>
      </trkpt>
      <trkpt lat="43.46699" lon="6.28636">
        <ele>213.1</ele>
        <time>2022-04-13T12:28:36.000Z</time>
      </trkpt>
      <trkpt lat="43.46697" lon="6.28642">
        <ele>212.4</ele>
        <time>2022-04-13T12:28:40.000Z</time>
      </trkpt>
      <trkpt lat="43.46695" lon="6.28649">
        <ele>211.9</ele>
        <time>2022-04-13T12:28:44.000Z</time>
      </trkpt>
      <trkpt lat="43.46694" lon="6.28656">
        <ele>211.2</ele>
        <time>2022-04-13T12:28:48.000Z</time>
      </trkpt>
      <trkpt lat="43.46696" lon="6.28663">
        <ele>210.6</ele>
        <time>2022-04-13T12:28:53.000Z</time>
      </trkpt>
      <trkpt lat="43.46699" lon="6.28669">
        <ele>210.1</ele>
        <time>2022-04-13T12:28:57.000Z</time>
      </trkpt>
      <trkpt lat="43.46702" lon="6.28674">
        <ele>209.7</ele>
        <time>2022-04-13T12:29:01.000Z</time>
      </trkpt>
      <trkpt lat="43.46705" lon="6.2868">
        <ele>209.4</ele>
        <time>2022-04-13T12:29:05.000Z</time>
      </trkpt>
      <trkpt lat="43.46709" lon="6.28684">
        <ele>209.1</ele>
        <time>2022-04-13T12:29:09.000Z</time>
      </trkpt>
      <trkpt lat="43.46712" lon="6.28689">
        <ele>209</ele>
        <time>2022-04-13T12:29:13.000Z</time>
      </trkpt>
      <trkpt lat="43.46715" lon="6.28696">
        <ele>209</ele>
        <time>2022-04-13T12:29:18.000Z</time>
      </trkpt>
      <trkpt lat="43.46719" lon="6.28702">
        <ele>208.9</ele>
        <time>2022-04-13T12:29:22.000Z</time>
      </trkpt>
      <trkpt lat="43.46722" lon="6.28707">
        <ele>208.9</ele>
        <time>2022-04-13T12:29:26.000Z</time>
      </trkpt>
      <trkpt lat="43.46726" lon="6.28712">
        <ele>208.9</ele>
        <time>2022-04-13T12:29:29.000Z</time>
      </trkpt>
      <trkpt lat="43.46729" lon="6.28717">
        <ele>208.9</ele>
        <time>2022-04-13T12:29:32.000Z</time>
      </trkpt>
      <trkpt lat="43.46733" lon="6.28723">
        <ele>208.9</ele>
        <time>2022-04-13T12:29:36.000Z</time>
      </trkpt>
      <trkpt lat="43.46736" lon="6.28729">
        <ele>208.9</ele>
        <time>2022-04-13T12:29:40.000Z</time>
      </trkpt>
      <trkpt lat="43.4674" lon="6.28734">
        <ele>208.8</ele>
        <time>2022-04-13T12:29:44.000Z</time>
      </trkpt>
      <trkpt lat="43.46744" lon="6.2874">
        <ele>208.8</ele>
        <time>2022-04-13T12:29:48.000Z</time>
      </trkpt>
      <trkpt lat="43.46747" lon="6.28745">
        <ele>208.8</ele>
        <time>2022-04-13T12:29:52.000Z</time>
      </trkpt>
      <trkpt lat="43.46751" lon="6.2875">
        <ele>209</ele>
        <time>2022-04-13T12:29:56.000Z</time>
      </trkpt>
      <trkpt lat="43.46754" lon="6.28755">
        <ele>209.2</ele>
        <time>2022-04-13T12:30:00.000Z</time>
      </trkpt>
      <trkpt lat="43.46758" lon="6.28761">
        <ele>209.3</ele>
        <time>2022-04-13T12:30:04.000Z</time>
      </trkpt>
      <trkpt lat="43.46762" lon="6.28766">
        <ele>209.3</ele>
        <time>2022-04-13T12:30:08.000Z</time>
      </trkpt>
      <trkpt lat="43.46765" lon="6.28771">
        <ele>209.3</ele>
        <time>2022-04-13T12:30:12.000Z</time>
      </trkpt>
      <trkpt lat="43.46769" lon="6.28777">
        <ele>209.1</ele>
        <time>2022-04-13T12:30:16.000Z</time>
      </trkpt>
      <trkpt lat="43.46773" lon="6.28782">
        <ele>208.9</ele>
        <time>2022-04-13T12:30:20.000Z</time>
      </trkpt>
      <trkpt lat="43.46775" lon="6.28788">
        <ele>208.8</ele>
        <time>2022-04-13T12:30:24.000Z</time>
      </trkpt>
      <trkpt lat="43.46779" lon="6.28792">
        <ele>208.7</ele>
        <time>2022-04-13T12:30:28.000Z</time>
      </trkpt>
      <trkpt lat="43.46783" lon="6.28797">
        <ele>208.5</ele>
        <time>2022-04-13T12:30:32.000Z</time>
      </trkpt>
      <trkpt lat="43.46787" lon="6.28802">
        <ele>208</ele>
        <time>2022-04-13T12:30:36.000Z</time>
      </trkpt>
      <trkpt lat="43.46789" lon="6.28808">
        <ele>207.5</ele>
        <time>2022-04-13T12:30:40.000Z</time>
      </trkpt>
      <trkpt lat="43.46792" lon="6.28814">
        <ele>207.3</ele>
        <time>2022-04-13T12:30:44.000Z</time>
      </trkpt>
      <trkpt lat="43.46795" lon="6.2882">
        <ele>207.2</ele>
        <time>2022-04-13T12:30:48.000Z</time>
      </trkpt>
      <trkpt lat="43.46799" lon="6.28825">
        <ele>206.9</ele>
        <time>2022-04-13T12:30:52.000Z</time>
      </trkpt>
      <trkpt lat="43.46803" lon="6.28829">
        <ele>206.6</ele>
        <time>2022-04-13T12:30:56.000Z</time>
      </trkpt>
      <trkpt lat="43.46807" lon="6.28832">
        <ele>206.4</ele>
        <time>2022-04-13T12:31:00.000Z</time>
      </trkpt>
      <trkpt lat="43.46813" lon="6.28832">
        <ele>206.2</ele>
        <time>2022-04-13T12:31:05.000Z</time>
      </trkpt>
      <trkpt lat="43.46818" lon="6.28831">
        <ele>206</ele>
        <time>2022-04-13T12:31:11.000Z</time>
      </trkpt>
      <trkpt lat="43.46823" lon="6.28829">
        <ele>205.9</ele>
        <time>2022-04-13T12:31:16.000Z</time>
      </trkpt>
      <trkpt lat="43.46828" lon="6.28827">
        <ele>205.7</ele>
        <time>2022-04-13T12:31:23.000Z</time>
      </trkpt>
      <trkpt lat="43.46832" lon="6.28824">
        <ele>205.6</ele>
        <time>2022-04-13T12:31:28.000Z</time>
      </trkpt>
      <trkpt lat="43.46836" lon="6.28821">
        <ele>205.6</ele>
        <time>2022-04-13T12:31:33.000Z</time>
      </trkpt>
      <trkpt lat="43.46841" lon="6.28818">
        <ele>205.6</ele>
        <time>2022-04-13T12:31:38.000Z</time>
      </trkpt>
      <trkpt lat="43.46845" lon="6.28814">
        <ele>205.5</ele>
        <time>2022-04-13T12:31:42.000Z</time>
      </trkpt>
      <trkpt lat="43.46849" lon="6.28811">
        <ele>205.4</ele>
        <time>2022-04-13T12:31:46.000Z</time>
      </trkpt>
      <trkpt lat="43.46853" lon="6.28807">
        <ele>205.3</ele>
        <time>2022-04-13T12:31:51.000Z</time>
      </trkpt>
      <trkpt lat="43.46858" lon="6.28804">
        <ele>204.9</ele>
        <time>2022-04-13T12:31:56.000Z</time>
      </trkpt>
      <trkpt lat="43.46863" lon="6.288">
        <ele>204.6</ele>
        <time>2022-04-13T12:32:01.000Z</time>
      </trkpt>
      <trkpt lat="43.46867" lon="6.28796">
        <ele>204.1</ele>
        <time>2022-04-13T12:32:06.000Z</time>
      </trkpt>
      <trkpt lat="43.46871" lon="6.28792">
        <ele>203.9</ele>
        <time>2022-04-13T12:32:10.000Z</time>
      </trkpt>
      <trkpt lat="43.46875" lon="6.28789">
        <ele>203.8</ele>
        <time>2022-04-13T12:32:14.000Z</time>
      </trkpt>
      <trkpt lat="43.46879" lon="6.28784">
        <ele>203.6</ele>
        <time>2022-04-13T12:32:18.000Z</time>
      </trkpt>
      <trkpt lat="43.46883" lon="6.28781">
        <ele>203.7</ele>
        <time>2022-04-13T12:32:22.000Z</time>
      </trkpt>
      <trkpt lat="43.46888" lon="6.28777">
        <ele>203.8</ele>
        <time>2022-04-13T12:32:26.000Z</time>
      </trkpt>
      <trkpt lat="43.46892" lon="6.28774">
        <ele>203.8</ele>
        <time>2022-04-13T12:32:30.000Z</time>
      </trkpt>
      <trkpt lat="43.46896" lon="6.28771">
        <ele>203.7</ele>
        <time>2022-04-13T12:32:34.000Z</time>
      </trkpt>
      <trkpt lat="43.46901" lon="6.28767">
        <ele>203.8</ele>
        <time>2022-04-13T12:32:38.000Z</time>
      </trkpt>
      <trkpt lat="43.46905" lon="6.28764">
        <ele>203.7</ele>
        <time>2022-04-13T12:32:42.000Z</time>
      </trkpt>
      <trkpt lat="43.46909" lon="6.28759">
        <ele>203.7</ele>
        <time>2022-04-13T12:32:46.000Z</time>
      </trkpt>
      <trkpt lat="43.46913" lon="6.28756">
        <ele>203.9</ele>
        <time>2022-04-13T12:32:50.000Z</time>
      </trkpt>
      <trkpt lat="43.46917" lon="6.28752">
        <ele>204.1</ele>
        <time>2022-04-13T12:32:54.000Z</time>
      </trkpt>
      <trkpt lat="43.46921" lon="6.28748">
        <ele>204</ele>
        <time>2022-04-13T12:32:58.000Z</time>
      </trkpt>
      <trkpt lat="43.46926" lon="6.28744">
        <ele>203.9</ele>
        <time>2022-04-13T12:33:02.000Z</time>
      </trkpt>
      <trkpt lat="43.4693" lon="6.28741">
        <ele>203.8</ele>
        <time>2022-04-13T12:33:06.000Z</time>
      </trkpt>
      <trkpt lat="43.46934" lon="6.28737">
        <ele>203.8</ele>
        <time>2022-04-13T12:33:10.000Z</time>
      </trkpt>
      <trkpt lat="43.46939" lon="6.28733">
        <ele>203.9</ele>
        <time>2022-04-13T12:33:14.000Z</time>
      </trkpt>
      <trkpt lat="43.46944" lon="6.28729">
        <ele>204</ele>
        <time>2022-04-13T12:33:18.000Z</time>
      </trkpt>
      <trkpt lat="43.46948" lon="6.28726">
        <ele>204.1</ele>
        <time>2022-04-13T12:33:22.000Z</time>
      </trkpt>
      <trkpt lat="43.46953" lon="6.28722">
        <ele>204.1</ele>
        <time>2022-04-13T12:33:26.000Z</time>
      </trkpt>
      <trkpt lat="43.46956" lon="6.28717">
        <ele>204.1</ele>
        <time>2022-04-13T12:33:30.000Z</time>
      </trkpt>
      <trkpt lat="43.4696" lon="6.28713">
        <ele>204</ele>
        <time>2022-04-13T12:33:34.000Z</time>
      </trkpt>
      <trkpt lat="43.46964" lon="6.2871">
        <ele>203.8</ele>
        <time>2022-04-13T12:33:38.000Z</time>
      </trkpt>
      <trkpt lat="43.46969" lon="6.28706">
        <ele>203.6</ele>
        <time>2022-04-13T12:33:42.000Z</time>
      </trkpt>
      <trkpt lat="43.46973" lon="6.28704">
        <ele>203.5</ele>
        <time>2022-04-13T12:33:46.000Z</time>
      </trkpt>
      <trkpt lat="43.46979" lon="6.28702">
        <ele>203.3</ele>
        <time>2022-04-13T12:33:50.000Z</time>
      </trkpt>
      <trkpt lat="43.46984" lon="6.28699">
        <ele>202.9</ele>
        <time>2022-04-13T12:33:54.000Z</time>
      </trkpt>
      <trkpt lat="43.46989" lon="6.28696">
        <ele>202.4</ele>
        <time>2022-04-13T12:33:58.000Z</time>
      </trkpt>
      <trkpt lat="43.46994" lon="6.28694">
        <ele>202</ele>
        <time>2022-04-13T12:34:02.000Z</time>
      </trkpt>
      <trkpt lat="43.46999" lon="6.28692">
        <ele>201.5</ele>
        <time>2022-04-13T12:34:06.000Z</time>
      </trkpt>
      <trkpt lat="43.47004" lon="6.28691">
        <ele>201</ele>
        <time>2022-04-13T12:34:11.000Z</time>
      </trkpt>
      <trkpt lat="43.4701" lon="6.28689">
        <ele>200.7</ele>
        <time>2022-04-13T12:34:16.000Z</time>
      </trkpt>
      <trkpt lat="43.47014" lon="6.28687">
        <ele>200.6</ele>
        <time>2022-04-13T12:34:20.000Z</time>
      </trkpt>
      <trkpt lat="43.47019" lon="6.28684">
        <ele>200.5</ele>
        <time>2022-04-13T12:34:24.000Z</time>
      </trkpt>
      <trkpt lat="43.47024" lon="6.28682">
        <ele>200.5</ele>
        <time>2022-04-13T12:34:28.000Z</time>
      </trkpt>
      <trkpt lat="43.47028" lon="6.28678">
        <ele>200.4</ele>
        <time>2022-04-13T12:34:32.000Z</time>
      </trkpt>
      <trkpt lat="43.47032" lon="6.28674">
        <ele>200.3</ele>
        <time>2022-04-13T12:34:36.000Z</time>
      </trkpt>
      <trkpt lat="43.47037" lon="6.28673">
        <ele>200.3</ele>
        <time>2022-04-13T12:34:40.000Z</time>
      </trkpt>
      <trkpt lat="43.47042" lon="6.28671">
        <ele>200.2</ele>
        <time>2022-04-13T12:34:44.000Z</time>
      </trkpt>
      <trkpt lat="43.47047" lon="6.28671">
        <ele>200.2</ele>
        <time>2022-04-13T12:34:48.000Z</time>
      </trkpt>
      <trkpt lat="43.47051" lon="6.28676">
        <ele>200.1</ele>
        <time>2022-04-13T12:34:53.000Z</time>
      </trkpt>
      <trkpt lat="43.47054" lon="6.28682">
        <ele>199.8</ele>
        <time>2022-04-13T12:34:58.000Z</time>
      </trkpt>
      <trkpt lat="43.47056" lon="6.28689">
        <ele>199.4</ele>
        <time>2022-04-13T12:35:02.000Z</time>
      </trkpt>
      <trkpt lat="43.47059" lon="6.28696">
        <ele>198.8</ele>
        <time>2022-04-13T12:35:06.000Z</time>
      </trkpt>
      <trkpt lat="43.47061" lon="6.28703">
        <ele>198.4</ele>
        <time>2022-04-13T12:35:10.000Z</time>
      </trkpt>
      <trkpt lat="43.47061" lon="6.2871">
        <ele>197.7</ele>
        <time>2022-04-13T12:35:14.000Z</time>
      </trkpt>
      <trkpt lat="43.47063" lon="6.28717">
        <ele>197.1</ele>
        <time>2022-04-13T12:35:18.000Z</time>
      </trkpt>
      <trkpt lat="43.47065" lon="6.28723">
        <ele>196.7</ele>
        <time>2022-04-13T12:35:22.000Z</time>
      </trkpt>
      <trkpt lat="43.47068" lon="6.28729">
        <ele>196.3</ele>
        <time>2022-04-13T12:35:26.000Z</time>
      </trkpt>
      <trkpt lat="43.47071" lon="6.28736">
        <ele>196.1</ele>
        <time>2022-04-13T12:35:30.000Z</time>
      </trkpt>
      <trkpt lat="43.47073" lon="6.28743">
        <ele>195.8</ele>
        <time>2022-04-13T12:35:34.000Z</time>
      </trkpt>
      <trkpt lat="43.47075" lon="6.2875">
        <ele>195.5</ele>
        <time>2022-04-13T12:35:38.000Z</time>
      </trkpt>
      <trkpt lat="43.47077" lon="6.28756">
        <ele>195.3</ele>
        <time>2022-04-13T12:35:42.000Z</time>
      </trkpt>
      <trkpt lat="43.4708" lon="6.28762">
        <ele>195.1</ele>
        <time>2022-04-13T12:35:46.000Z</time>
      </trkpt>
      <trkpt lat="43.47081" lon="6.28768">
        <ele>194.9</ele>
        <time>2022-04-13T12:35:50.000Z</time>
      </trkpt>
      <trkpt lat="43.47083" lon="6.28776">
        <ele>194.7</ele>
        <time>2022-04-13T12:35:54.000Z</time>
      </trkpt>
      <trkpt lat="43.47084" lon="6.28783">
        <ele>194.4</ele>
        <time>2022-04-13T12:35:58.000Z</time>
      </trkpt>
      <trkpt lat="43.47086" lon="6.2879">
        <ele>194.2</ele>
        <time>2022-04-13T12:36:02.000Z</time>
      </trkpt>
      <trkpt lat="43.47087" lon="6.28797">
        <ele>194</ele>
        <time>2022-04-13T12:36:06.000Z</time>
      </trkpt>
      <trkpt lat="43.47088" lon="6.28803">
        <ele>193.7</ele>
        <time>2022-04-13T12:36:10.000Z</time>
      </trkpt>
      <trkpt lat="43.4709" lon="6.2881">
        <ele>193.4</ele>
        <time>2022-04-13T12:36:14.000Z</time>
      </trkpt>
      <trkpt lat="43.47091" lon="6.28817">
        <ele>192.9</ele>
        <time>2022-04-13T12:36:18.000Z</time>
      </trkpt>
      <trkpt lat="43.47093" lon="6.28824">
        <ele>192.2</ele>
        <time>2022-04-13T12:36:22.000Z</time>
      </trkpt>
      <trkpt lat="43.47094" lon="6.2883">
        <ele>191.4</ele>
        <time>2022-04-13T12:36:26.000Z</time>
      </trkpt>
      <trkpt lat="43.47096" lon="6.28837">
        <ele>191</ele>
        <time>2022-04-13T12:36:30.000Z</time>
      </trkpt>
      <trkpt lat="43.47096" lon="6.28844">
        <ele>190.6</ele>
        <time>2022-04-13T12:36:37.000Z</time>
      </trkpt>
      <trkpt lat="43.47096" lon="6.2885">
        <ele>189.7</ele>
        <time>2022-04-13T12:37:22.000Z</time>
      </trkpt>
      <trkpt lat="43.47097" lon="6.28857">
        <ele>190.4</ele>
        <time>2022-04-13T12:37:58.000Z</time>
      </trkpt>
      <trkpt lat="43.47099" lon="6.28863">
        <ele>190.4</ele>
        <time>2022-04-13T12:38:03.000Z</time>
      </trkpt>
      <trkpt lat="43.47101" lon="6.28869">
        <ele>190.4</ele>
        <time>2022-04-13T12:38:09.000Z</time>
      </trkpt>
      <trkpt lat="43.47104" lon="6.28875">
        <ele>190.3</ele>
        <time>2022-04-13T12:38:14.000Z</time>
      </trkpt>
      <trkpt lat="43.47107" lon="6.28881">
        <ele>190.2</ele>
        <time>2022-04-13T12:38:19.000Z</time>
      </trkpt>
      <trkpt lat="43.4711" lon="6.28887">
        <ele>189.9</ele>
        <time>2022-04-13T12:38:24.000Z</time>
      </trkpt>
      <trkpt lat="43.47113" lon="6.28892">
        <ele>189.6</ele>
        <time>2022-04-13T12:38:29.000Z</time>
      </trkpt>
      <trkpt lat="43.47117" lon="6.28898">
        <ele>189.2</ele>
        <time>2022-04-13T12:38:34.000Z</time>
      </trkpt>
      <trkpt lat="43.47119" lon="6.28904">
        <ele>189</ele>
        <time>2022-04-13T12:38:38.000Z</time>
      </trkpt>
      <trkpt lat="43.47121" lon="6.2891">
        <ele>188.9</ele>
        <time>2022-04-13T12:38:42.000Z</time>
      </trkpt>
      <trkpt lat="43.47124" lon="6.28917">
        <ele>188.7</ele>
        <time>2022-04-13T12:38:46.000Z</time>
      </trkpt>
      <trkpt lat="43.47126" lon="6.28923">
        <ele>188.6</ele>
        <time>2022-04-13T12:38:50.000Z</time>
      </trkpt>
      <trkpt lat="43.47129" lon="6.28929">
        <ele>188.3</ele>
        <time>2022-04-13T12:38:54.000Z</time>
      </trkpt>
      <trkpt lat="43.47132" lon="6.28935">
        <ele>188.1</ele>
        <time>2022-04-13T12:38:58.000Z</time>
      </trkpt>
      <trkpt lat="43.47134" lon="6.28941">
        <ele>188</ele>
        <time>2022-04-13T12:39:02.000Z</time>
      </trkpt>
      <trkpt lat="43.47136" lon="6.28946">
        <ele>187.9</ele>
        <time>2022-04-13T12:39:06.000Z</time>
      </trkpt>
      <trkpt lat="43.47138" lon="6.28952">
        <ele>187.7</ele>
        <time>2022-04-13T12:39:11.000Z</time>
      </trkpt>
      <trkpt lat="43.4714" lon="6.28959">
        <ele>187.5</ele>
        <time>2022-04-13T12:39:16.000Z</time>
      </trkpt>
      <trkpt lat="43.47143" lon="6.28964">
        <ele>187.3</ele>
        <time>2022-04-13T12:39:20.000Z</time>
      </trkpt>
      <trkpt lat="43.47145" lon="6.28971">
        <ele>187.1</ele>
        <time>2022-04-13T12:39:25.000Z</time>
      </trkpt>
      <trkpt lat="43.47147" lon="6.28976">
        <ele>186.6</ele>
        <time>2022-04-13T12:39:29.000Z</time>
      </trkpt>
      <trkpt lat="43.47149" lon="6.28983">
        <ele>186.2</ele>
        <time>2022-04-13T12:39:34.000Z</time>
      </trkpt>
      <trkpt lat="43.47151" lon="6.28989">
        <ele>186.2</ele>
        <time>2022-04-13T12:39:38.000Z</time>
      </trkpt>
      <trkpt lat="43.47152" lon="6.28996">
        <ele>186</ele>
        <time>2022-04-13T12:39:42.000Z</time>
      </trkpt>
      <trkpt lat="43.47152" lon="6.29002">
        <ele>185.8</ele>
        <time>2022-04-13T12:39:46.000Z</time>
      </trkpt>
      <trkpt lat="43.47152" lon="6.29009">
        <ele>185.7</ele>
        <time>2022-04-13T12:39:50.000Z</time>
      </trkpt>
      <trkpt lat="43.47151" lon="6.29016">
        <ele>185.5</ele>
        <time>2022-04-13T12:39:54.000Z</time>
      </trkpt>
      <trkpt lat="43.4715" lon="6.29022">
        <ele>185.2</ele>
        <time>2022-04-13T12:39:58.000Z</time>
      </trkpt>
      <trkpt lat="43.4715" lon="6.29028">
        <ele>184.6</ele>
        <time>2022-04-13T12:40:02.000Z</time>
      </trkpt>
      <trkpt lat="43.47148" lon="6.29035">
        <ele>183.9</ele>
        <time>2022-04-13T12:40:07.000Z</time>
      </trkpt>
      <trkpt lat="43.47148" lon="6.29042">
        <ele>183.6</ele>
        <time>2022-04-13T12:40:11.000Z</time>
      </trkpt>
      <trkpt lat="43.47148" lon="6.29048">
        <ele>183.2</ele>
        <time>2022-04-13T12:40:15.000Z</time>
      </trkpt>
      <trkpt lat="43.47149" lon="6.29056">
        <ele>182.8</ele>
        <time>2022-04-13T12:40:20.000Z</time>
      </trkpt>
      <trkpt lat="43.47148" lon="6.29063">
        <ele>182.6</ele>
        <time>2022-04-13T12:40:24.000Z</time>
      </trkpt>
      <trkpt lat="43.47149" lon="6.29071">
        <ele>182.2</ele>
        <time>2022-04-13T12:40:29.000Z</time>
      </trkpt>
      <trkpt lat="43.47149" lon="6.29078">
        <ele>182</ele>
        <time>2022-04-13T12:40:33.000Z</time>
      </trkpt>
      <trkpt lat="43.4715" lon="6.29084">
        <ele>181.6</ele>
        <time>2022-04-13T12:40:38.000Z</time>
      </trkpt>
      <trkpt lat="43.47147" lon="6.2909">
        <ele>180.5</ele>
        <time>2022-04-13T12:40:56.000Z</time>
      </trkpt>
      <trkpt lat="43.47149" lon="6.29096">
        <ele>179.8</ele>
        <time>2022-04-13T12:42:17.000Z</time>
      </trkpt>
      <trkpt lat="43.47144" lon="6.29093">
        <ele>179.2</ele>
        <time>2022-04-13T12:43:17.000Z</time>
      </trkpt>
      <trkpt lat="43.47144" lon="6.29086">
        <ele>179.3</ele>
        <time>2022-04-13T12:43:22.000Z</time>
      </trkpt>
      <trkpt lat="43.47144" lon="6.29079">
        <ele>179.3</ele>
        <time>2022-04-13T12:43:27.000Z</time>
      </trkpt>
      <trkpt lat="43.47146" lon="6.29072">
        <ele>179.3</ele>
        <time>2022-04-13T12:43:31.000Z</time>
      </trkpt>
      <trkpt lat="43.4715" lon="6.29068">
        <ele>179.4</ele>
        <time>2022-04-13T12:43:36.000Z</time>
      </trkpt>
      <trkpt lat="43.47154" lon="6.29065">
        <ele>179.4</ele>
        <time>2022-04-13T12:43:41.000Z</time>
      </trkpt>
      <trkpt lat="43.4716" lon="6.29065">
        <ele>179.4</ele>
        <time>2022-04-13T12:43:46.000Z</time>
      </trkpt>
      <trkpt lat="43.47164" lon="6.29066">
        <ele>178.4</ele>
        <time>2022-04-13T12:43:55.000Z</time>
      </trkpt>
      <trkpt lat="43.47169" lon="6.29069">
        <ele>177.5</ele>
        <time>2022-04-13T12:44:01.000Z</time>
      </trkpt>
      <trkpt lat="43.47174" lon="6.29073">
        <ele>176.8</ele>
        <time>2022-04-13T12:44:07.000Z</time>
      </trkpt>
      <trkpt lat="43.47178" lon="6.29077">
        <ele>176.3</ele>
        <time>2022-04-13T12:44:12.000Z</time>
      </trkpt>
      <trkpt lat="43.47183" lon="6.2908">
        <ele>176</ele>
        <time>2022-04-13T12:44:17.000Z</time>
      </trkpt>
      <trkpt lat="43.47187" lon="6.29083">
        <ele>175.8</ele>
        <time>2022-04-13T12:44:20.000Z</time>
      </trkpt>
      <trkpt lat="43.47192" lon="6.29086">
        <ele>175.7</ele>
        <time>2022-04-13T12:44:23.000Z</time>
      </trkpt>
      <trkpt lat="43.47196" lon="6.29089">
        <ele>175.5</ele>
        <time>2022-04-13T12:44:27.000Z</time>
      </trkpt>
      <trkpt lat="43.47201" lon="6.29092">
        <ele>175.4</ele>
        <time>2022-04-13T12:44:32.000Z</time>
      </trkpt>
      <trkpt lat="43.47206" lon="6.29095">
        <ele>175.2</ele>
        <time>2022-04-13T12:44:36.000Z</time>
      </trkpt>
      <trkpt lat="43.47211" lon="6.29098">
        <ele>175.2</ele>
        <time>2022-04-13T12:44:40.000Z</time>
      </trkpt>
      <trkpt lat="43.47215" lon="6.291">
        <ele>175.3</ele>
        <time>2022-04-13T12:44:44.000Z</time>
      </trkpt>
      <trkpt lat="43.4722" lon="6.29101">
        <ele>175.3</ele>
        <time>2022-04-13T12:44:48.000Z</time>
      </trkpt>
      <trkpt lat="43.47225" lon="6.29103">
        <ele>175.4</ele>
        <time>2022-04-13T12:44:52.000Z</time>
      </trkpt>
      <trkpt lat="43.4723" lon="6.29104">
        <ele>175.4</ele>
        <time>2022-04-13T12:44:57.000Z</time>
      </trkpt>
      <trkpt lat="43.47235" lon="6.29105">
        <ele>175.4</ele>
        <time>2022-04-13T12:45:01.000Z</time>
      </trkpt>
      <trkpt lat="43.4724" lon="6.29106">
        <ele>175.4</ele>
        <time>2022-04-13T12:45:05.000Z</time>
      </trkpt>
      <trkpt lat="43.47245" lon="6.29107">
        <ele>175.4</ele>
        <time>2022-04-13T12:45:10.000Z</time>
      </trkpt>
      <trkpt lat="43.47249" lon="6.29108">
        <ele>175.4</ele>
        <time>2022-04-13T12:45:15.000Z</time>
      </trkpt>
      <trkpt lat="43.47254" lon="6.29112">
        <ele>175.3</ele>
        <time>2022-04-13T12:45:20.000Z</time>
      </trkpt>
      <trkpt lat="43.47259" lon="6.29116">
        <ele>175.3</ele>
        <time>2022-04-13T12:45:25.000Z</time>
      </trkpt>
      <trkpt lat="43.47262" lon="6.29121">
        <ele>175.2</ele>
        <time>2022-04-13T12:45:29.000Z</time>
      </trkpt>
      <trkpt lat="43.47267" lon="6.29125">
        <ele>175.2</ele>
        <time>2022-04-13T12:45:33.000Z</time>
      </trkpt>
      <trkpt lat="43.47271" lon="6.2913">
        <ele>175.1</ele>
        <time>2022-04-13T12:45:38.000Z</time>
      </trkpt>
      <trkpt lat="43.47274" lon="6.29136">
        <ele>174.8</ele>
        <time>2022-04-13T12:45:43.000Z</time>
      </trkpt>
      <trkpt lat="43.47276" lon="6.29142">
        <ele>174.7</ele>
        <time>2022-04-13T12:45:47.000Z</time>
      </trkpt>
      <trkpt lat="43.47278" lon="6.2915">
        <ele>174.5</ele>
        <time>2022-04-13T12:45:52.000Z</time>
      </trkpt>
      <trkpt lat="43.4728" lon="6.29155">
        <ele>174.5</ele>
        <time>2022-04-13T12:45:56.000Z</time>
      </trkpt>
      <trkpt lat="43.47283" lon="6.29161">
        <ele>174.5</ele>
        <time>2022-04-13T12:46:01.000Z</time>
      </trkpt>
      <trkpt lat="43.47286" lon="6.29167">
        <ele>174.6</ele>
        <time>2022-04-13T12:46:04.000Z</time>
      </trkpt>
      <trkpt lat="43.4729" lon="6.29171">
        <ele>174.7</ele>
        <time>2022-04-13T12:46:07.000Z</time>
      </trkpt>
      <trkpt lat="43.47293" lon="6.29177">
        <ele>175</ele>
        <time>2022-04-13T12:46:11.000Z</time>
      </trkpt>
      <trkpt lat="43.47296" lon="6.29184">
        <ele>175.3</ele>
        <time>2022-04-13T12:46:15.000Z</time>
      </trkpt>
      <trkpt lat="43.47298" lon="6.29189">
        <ele>175.6</ele>
        <time>2022-04-13T12:46:19.000Z</time>
      </trkpt>
      <trkpt lat="43.47301" lon="6.29195">
        <ele>175.9</ele>
        <time>2022-04-13T12:46:24.000Z</time>
      </trkpt>
      <trkpt lat="43.47305" lon="6.29199">
        <ele>176.2</ele>
        <time>2022-04-13T12:46:30.000Z</time>
      </trkpt>
      <trkpt lat="43.47306" lon="6.29205">
        <ele>176.5</ele>
        <time>2022-04-13T12:46:38.000Z</time>
      </trkpt>
      <trkpt lat="43.47309" lon="6.29211">
        <ele>177</ele>
        <time>2022-04-13T12:47:01.000Z</time>
      </trkpt>
      <trkpt lat="43.47312" lon="6.29216">
        <ele>177.3</ele>
        <time>2022-04-13T12:47:07.000Z</time>
      </trkpt>
      <trkpt lat="43.47313" lon="6.29222">
        <ele>177.9</ele>
        <time>2022-04-13T12:47:16.000Z</time>
      </trkpt>
      <trkpt lat="43.47314" lon="6.29228">
        <ele>178.6</ele>
        <time>2022-04-13T12:47:22.000Z</time>
      </trkpt>
      <trkpt lat="43.47315" lon="6.29235">
        <ele>178.9</ele>
        <time>2022-04-13T12:47:27.000Z</time>
      </trkpt>
      <trkpt lat="43.47316" lon="6.29241">
        <ele>179.6</ele>
        <time>2022-04-13T12:47:43.000Z</time>
      </trkpt>
      <trkpt lat="43.47314" lon="6.29247">
        <ele>179.7</ele>
        <time>2022-04-13T12:47:48.000Z</time>
      </trkpt>
      <trkpt lat="43.47312" lon="6.29253">
        <ele>179.7</ele>
        <time>2022-04-13T12:47:52.000Z</time>
      </trkpt>
      <trkpt lat="43.4731" lon="6.29259">
        <ele>179.6</ele>
        <time>2022-04-13T12:47:57.000Z</time>
      </trkpt>
      <trkpt lat="43.4731" lon="6.29265">
        <ele>179.5</ele>
        <time>2022-04-13T12:48:04.000Z</time>
      </trkpt>
      <trkpt lat="43.47309" lon="6.29272">
        <ele>179.6</ele>
        <time>2022-04-13T12:48:09.000Z</time>
      </trkpt>
      <trkpt lat="43.47309" lon="6.29279">
        <ele>179.6</ele>
        <time>2022-04-13T12:48:14.000Z</time>
      </trkpt>
      <trkpt lat="43.47308" lon="6.29286">
        <ele>179.6</ele>
        <time>2022-04-13T12:48:20.000Z</time>
      </trkpt>
      <trkpt lat="43.47307" lon="6.29293">
        <ele>179.4</ele>
        <time>2022-04-13T12:48:25.000Z</time>
      </trkpt>
      <trkpt lat="43.47306" lon="6.29299">
        <ele>179.4</ele>
        <time>2022-04-13T12:48:30.000Z</time>
      </trkpt>
      <trkpt lat="43.47305" lon="6.29306">
        <ele>179.4</ele>
        <time>2022-04-13T12:48:37.000Z</time>
      </trkpt>
      <trkpt lat="43.47303" lon="6.29313">
        <ele>179.3</ele>
        <time>2022-04-13T12:48:43.000Z</time>
      </trkpt>
      <trkpt lat="43.47301" lon="6.29319">
        <ele>179.3</ele>
        <time>2022-04-13T12:48:48.000Z</time>
      </trkpt>
      <trkpt lat="43.47299" lon="6.29325">
        <ele>179.2</ele>
        <time>2022-04-13T12:48:55.000Z</time>
      </trkpt>
      <trkpt lat="43.47296" lon="6.29331">
        <ele>178.9</ele>
        <time>2022-04-13T12:49:02.000Z</time>
      </trkpt>
      <trkpt lat="43.47293" lon="6.29337">
        <ele>178.7</ele>
        <time>2022-04-13T12:49:07.000Z</time>
      </trkpt>
      <trkpt lat="43.47291" lon="6.29342">
        <ele>178.6</ele>
        <time>2022-04-13T12:49:12.000Z</time>
      </trkpt>
      <trkpt lat="43.4729" lon="6.29349">
        <ele>178.2</ele>
        <time>2022-04-13T12:49:17.000Z</time>
      </trkpt>
      <trkpt lat="43.47289" lon="6.29355">
        <ele>177.9</ele>
        <time>2022-04-13T12:49:21.000Z</time>
      </trkpt>
      <trkpt lat="43.47286" lon="6.29361">
        <ele>177.2</ele>
        <time>2022-04-13T12:49:26.000Z</time>
      </trkpt>
      <trkpt lat="43.47284" lon="6.29367">
        <ele>176.7</ele>
        <time>2022-04-13T12:49:31.000Z</time>
      </trkpt>
      <trkpt lat="43.47282" lon="6.29374">
        <ele>176.1</ele>
        <time>2022-04-13T12:49:36.000Z</time>
      </trkpt>
      <trkpt lat="43.4728" lon="6.2938">
        <ele>175.5</ele>
        <time>2022-04-13T12:49:41.000Z</time>
      </trkpt>
      <trkpt lat="43.47278" lon="6.29387">
        <ele>174.8</ele>
        <time>2022-04-13T12:49:46.000Z</time>
      </trkpt>
      <trkpt lat="43.47277" lon="6.29394">
        <ele>174.1</ele>
        <time>2022-04-13T12:49:50.000Z</time>
      </trkpt>
      <trkpt lat="43.47276" lon="6.29401">
        <ele>173.6</ele>
        <time>2022-04-13T12:49:54.000Z</time>
      </trkpt>
      <trkpt lat="43.47274" lon="6.29407">
        <ele>173.2</ele>
        <time>2022-04-13T12:49:59.000Z</time>
      </trkpt>
      <trkpt lat="43.47273" lon="6.29414">
        <ele>172.7</ele>
        <time>2022-04-13T12:50:04.000Z</time>
      </trkpt>
      <trkpt lat="43.47273" lon="6.29421">
        <ele>172.4</ele>
        <time>2022-04-13T12:50:09.000Z</time>
      </trkpt>
      <trkpt lat="43.47271" lon="6.29428">
        <ele>172.1</ele>
        <time>2022-04-13T12:50:14.000Z</time>
      </trkpt>
      <trkpt lat="43.4727" lon="6.29435">
        <ele>171.9</ele>
        <time>2022-04-13T12:50:19.000Z</time>
      </trkpt>
      <trkpt lat="43.47269" lon="6.29442">
        <ele>171.6</ele>
        <time>2022-04-13T12:50:24.000Z</time>
      </trkpt>
      <trkpt lat="43.47268" lon="6.29449">
        <ele>171.4</ele>
        <time>2022-04-13T12:50:28.000Z</time>
      </trkpt>
      <trkpt lat="43.47267" lon="6.29456">
        <ele>171</ele>
        <time>2022-04-13T12:50:33.000Z</time>
      </trkpt>
      <trkpt lat="43.47264" lon="6.29461">
        <ele>170.7</ele>
        <time>2022-04-13T12:50:36.000Z</time>
      </trkpt>
      <trkpt lat="43.47262" lon="6.29468">
        <ele>170.2</ele>
        <time>2022-04-13T12:50:40.000Z</time>
      </trkpt>
      <trkpt lat="43.47261" lon="6.29474">
        <ele>169.8</ele>
        <time>2022-04-13T12:50:44.000Z</time>
      </trkpt>
      <trkpt lat="43.47259" lon="6.29481">
        <ele>169.3</ele>
        <time>2022-04-13T12:50:49.000Z</time>
      </trkpt>
      <trkpt lat="43.47258" lon="6.29487">
        <ele>169</ele>
        <time>2022-04-13T12:50:53.000Z</time>
      </trkpt>
      <trkpt lat="43.47255" lon="6.29493">
        <ele>168.4</ele>
        <time>2022-04-13T12:50:58.000Z</time>
      </trkpt>
      <trkpt lat="43.47254" lon="6.29499">
        <ele>168</ele>
        <time>2022-04-13T12:51:02.000Z</time>
      </trkpt>
      <trkpt lat="43.47255" lon="6.29506">
        <ele>167.5</ele>
        <time>2022-04-13T12:51:06.000Z</time>
      </trkpt>
      <trkpt lat="43.47254" lon="6.29513">
        <ele>167</ele>
        <time>2022-04-13T12:51:11.000Z</time>
      </trkpt>
      <trkpt lat="43.47252" lon="6.29519">
        <ele>166.6</ele>
        <time>2022-04-13T12:51:18.000Z</time>
      </trkpt>
      <trkpt lat="43.47253" lon="6.29525">
        <ele>165.3</ele>
        <time>2022-04-13T12:51:37.000Z</time>
      </trkpt>
      <trkpt lat="43.47256" lon="6.2953">
        <ele>164.8</ele>
        <time>2022-04-13T12:51:48.000Z</time>
      </trkpt>
      <trkpt lat="43.47255" lon="6.29537">
        <ele>164.4</ele>
        <time>2022-04-13T12:52:00.000Z</time>
      </trkpt>
      <trkpt lat="43.47254" lon="6.29543">
        <ele>164</ele>
        <time>2022-04-13T12:52:06.000Z</time>
      </trkpt>
      <trkpt lat="43.47252" lon="6.29549">
        <ele>163.7</ele>
        <time>2022-04-13T12:52:11.000Z</time>
      </trkpt>
      <trkpt lat="43.47251" lon="6.29556">
        <ele>163.5</ele>
        <time>2022-04-13T12:52:16.000Z</time>
      </trkpt>
      <trkpt lat="43.4725" lon="6.29562">
        <ele>163.3</ele>
        <time>2022-04-13T12:52:21.000Z</time>
      </trkpt>
      <trkpt lat="43.47248" lon="6.29569">
        <ele>163.1</ele>
        <time>2022-04-13T12:52:26.000Z</time>
      </trkpt>
      <trkpt lat="43.47245" lon="6.29574">
        <ele>162.8</ele>
        <time>2022-04-13T12:52:32.000Z</time>
      </trkpt>
      <trkpt lat="43.4724" lon="6.29575">
        <ele>162.6</ele>
        <time>2022-04-13T12:52:37.000Z</time>
      </trkpt>
      <trkpt lat="43.47238" lon="6.29569">
        <ele>162</ele>
        <time>2022-04-13T12:52:45.000Z</time>
      </trkpt>
      <trkpt lat="43.47237" lon="6.29563">
        <ele>161.7</ele>
        <time>2022-04-13T12:52:49.000Z</time>
      </trkpt>
      <trkpt lat="43.47236" lon="6.29556">
        <ele>161.5</ele>
        <time>2022-04-13T12:52:54.000Z</time>
      </trkpt>
      <trkpt lat="43.47234" lon="6.29549">
        <ele>160.9</ele>
        <time>2022-04-13T12:53:00.000Z</time>
      </trkpt>
      <trkpt lat="43.47231" lon="6.29544">
        <ele>160.4</ele>
        <time>2022-04-13T12:53:04.000Z</time>
      </trkpt>
      <trkpt lat="43.47229" lon="6.29538">
        <ele>159.6</ele>
        <time>2022-04-13T12:53:09.000Z</time>
      </trkpt>
      <trkpt lat="43.47228" lon="6.29532">
        <ele>159.1</ele>
        <time>2022-04-13T12:53:14.000Z</time>
      </trkpt>
      <trkpt lat="43.47225" lon="6.29526">
        <ele>158.7</ele>
        <time>2022-04-13T12:53:19.000Z</time>
      </trkpt>
      <trkpt lat="43.47223" lon="6.29519">
        <ele>158.3</ele>
        <time>2022-04-13T12:53:24.000Z</time>
      </trkpt>
      <trkpt lat="43.47221" lon="6.29512">
        <ele>158</ele>
        <time>2022-04-13T12:53:29.000Z</time>
      </trkpt>
      <trkpt lat="43.4722" lon="6.29506">
        <ele>157.7</ele>
        <time>2022-04-13T12:53:33.000Z</time>
      </trkpt>
      <trkpt lat="43.47219" lon="6.295">
        <ele>157.5</ele>
        <time>2022-04-13T12:53:37.000Z</time>
      </trkpt>
      <trkpt lat="43.47219" lon="6.29493">
        <ele>157.3</ele>
        <time>2022-04-13T12:53:41.000Z</time>
      </trkpt>
      <trkpt lat="43.47217" lon="6.29487">
        <ele>157.2</ele>
        <time>2022-04-13T12:53:45.000Z</time>
      </trkpt>
      <trkpt lat="43.47216" lon="6.29479">
        <ele>156.8</ele>
        <time>2022-04-13T12:53:50.000Z</time>
      </trkpt>
      <trkpt lat="43.47215" lon="6.29472">
        <ele>156.6</ele>
        <time>2022-04-13T12:53:54.000Z</time>
      </trkpt>
      <trkpt lat="43.47214" lon="6.29466">
        <ele>156.3</ele>
        <time>2022-04-13T12:53:58.000Z</time>
      </trkpt>
      <trkpt lat="43.47212" lon="6.29459">
        <ele>156.1</ele>
        <time>2022-04-13T12:54:03.000Z</time>
      </trkpt>
      <trkpt lat="43.47211" lon="6.29453">
        <ele>155.9</ele>
        <time>2022-04-13T12:54:07.000Z</time>
      </trkpt>
      <trkpt lat="43.4721" lon="6.29446">
        <ele>155.5</ele>
        <time>2022-04-13T12:54:11.000Z</time>
      </trkpt>
      <trkpt lat="43.47209" lon="6.29439">
        <ele>154.9</ele>
        <time>2022-04-13T12:54:16.000Z</time>
      </trkpt>
      <trkpt lat="43.47208" lon="6.29432">
        <ele>154.4</ele>
        <time>2022-04-13T12:54:20.000Z</time>
      </trkpt>
      <trkpt lat="43.47206" lon="6.29425">
        <ele>154</ele>
        <time>2022-04-13T12:54:24.000Z</time>
      </trkpt>
      <trkpt lat="43.47205" lon="6.29418">
        <ele>153.5</ele>
        <time>2022-04-13T12:54:28.000Z</time>
      </trkpt>
      <trkpt lat="43.47204" lon="6.29412">
        <ele>152.9</ele>
        <time>2022-04-13T12:54:35.000Z</time>
      </trkpt>
      <trkpt lat="43.47204" lon="6.29405">
        <ele>152</ele>
        <time>2022-04-13T12:54:45.000Z</time>
      </trkpt>
      <trkpt lat="43.47203" lon="6.29398">
        <ele>151.3</ele>
        <time>2022-04-13T12:54:50.000Z</time>
      </trkpt>
      <trkpt lat="43.47201" lon="6.29392">
        <ele>150.1</ele>
        <time>2022-04-13T12:55:01.000Z</time>
      </trkpt>
      <trkpt lat="43.47205" lon="6.29394">
        <ele>149.3</ele>
        <time>2022-04-13T12:55:21.000Z</time>
      </trkpt>
      <trkpt lat="43.47201" lon="6.29397">
        <ele>148.3</ele>
        <time>2022-04-13T12:55:49.000Z</time>
      </trkpt>
      <trkpt lat="43.47199" lon="6.29403">
        <ele>148.2</ele>
        <time>2022-04-13T12:55:56.000Z</time>
      </trkpt>
      <trkpt lat="43.47196" lon="6.29409">
        <ele>148</ele>
        <time>2022-04-13T12:56:03.000Z</time>
      </trkpt>
      <trkpt lat="43.47194" lon="6.29416">
        <ele>147.4</ele>
        <time>2022-04-13T12:56:11.000Z</time>
      </trkpt>
      <trkpt lat="43.47192" lon="6.29423">
        <ele>147</ele>
        <time>2022-04-13T12:56:17.000Z</time>
      </trkpt>
      <trkpt lat="43.47191" lon="6.29429">
        <ele>145.9</ele>
        <time>2022-04-13T12:56:32.000Z</time>
      </trkpt>
      <trkpt lat="43.47189" lon="6.29436">
        <ele>145.5</ele>
        <time>2022-04-13T12:56:38.000Z</time>
      </trkpt>
      <trkpt lat="43.47188" lon="6.29442">
        <ele>144.7</ele>
        <time>2022-04-13T12:56:45.000Z</time>
      </trkpt>
      <trkpt lat="43.47186" lon="6.29449">
        <ele>144.1</ele>
        <time>2022-04-13T12:56:51.000Z</time>
      </trkpt>
      <trkpt lat="43.47183" lon="6.29456">
        <ele>143.4</ele>
        <time>2022-04-13T12:56:56.000Z</time>
      </trkpt>
      <trkpt lat="43.47179" lon="6.29457">
        <ele>141.7</ele>
        <time>2022-04-13T12:57:09.000Z</time>
      </trkpt>
      <trkpt lat="43.47176" lon="6.29463">
        <ele>141.2</ele>
        <time>2022-04-13T12:57:18.000Z</time>
      </trkpt>
      <trkpt lat="43.47175" lon="6.2947">
        <ele>140.9</ele>
        <time>2022-04-13T12:57:24.000Z</time>
      </trkpt>
      <trkpt lat="43.47172" lon="6.29476">
        <ele>140.5</ele>
        <time>2022-04-13T12:57:33.000Z</time>
      </trkpt>
      <trkpt lat="43.47171" lon="6.29482">
        <ele>139.9</ele>
        <time>2022-04-13T12:57:46.000Z</time>
      </trkpt>
      <trkpt lat="43.47169" lon="6.29488">
        <ele>139.8</ele>
        <time>2022-04-13T12:57:50.000Z</time>
      </trkpt>
      <trkpt lat="43.47167" lon="6.29495">
        <ele>139.6</ele>
        <time>2022-04-13T12:57:55.000Z</time>
      </trkpt>
      <trkpt lat="43.47166" lon="6.29502">
        <ele>139.5</ele>
        <time>2022-04-13T12:57:59.000Z</time>
      </trkpt>
      <trkpt lat="43.47165" lon="6.29508">
        <ele>139</ele>
        <time>2022-04-13T12:58:04.000Z</time>
      </trkpt>
      <trkpt lat="43.47162" lon="6.29514">
        <ele>138.6</ele>
        <time>2022-04-13T12:58:10.000Z</time>
      </trkpt>
      <trkpt lat="43.47161" lon="6.29521">
        <ele>138.3</ele>
        <time>2022-04-13T12:58:15.000Z</time>
      </trkpt>
      <trkpt lat="43.47159" lon="6.29527">
        <ele>137.9</ele>
        <time>2022-04-13T12:58:19.000Z</time>
      </trkpt>
      <trkpt lat="43.47158" lon="6.29533">
        <ele>137.1</ele>
        <time>2022-04-13T12:58:24.000Z</time>
      </trkpt>
      <trkpt lat="43.47156" lon="6.29539">
        <ele>136.6</ele>
        <time>2022-04-13T12:58:28.000Z</time>
      </trkpt>
      <trkpt lat="43.47154" lon="6.29546">
        <ele>135.9</ele>
        <time>2022-04-13T12:58:33.000Z</time>
      </trkpt>
      <trkpt lat="43.47152" lon="6.29553">
        <ele>135.2</ele>
        <time>2022-04-13T12:58:38.000Z</time>
      </trkpt>
      <trkpt lat="43.4715" lon="6.2956">
        <ele>134.6</ele>
        <time>2022-04-13T12:58:42.000Z</time>
      </trkpt>
      <trkpt lat="43.47148" lon="6.29566">
        <ele>133.9</ele>
        <time>2022-04-13T12:58:46.000Z</time>
      </trkpt>
      <trkpt lat="43.47147" lon="6.29572">
        <ele>133.3</ele>
        <time>2022-04-13T12:58:50.000Z</time>
      </trkpt>
      <trkpt lat="43.47145" lon="6.29579">
        <ele>132.6</ele>
        <time>2022-04-13T12:58:55.000Z</time>
      </trkpt>
      <trkpt lat="43.47143" lon="6.29586">
        <ele>131.6</ele>
        <time>2022-04-13T12:59:00.000Z</time>
      </trkpt>
      <trkpt lat="43.47142" lon="6.29593">
        <ele>130.9</ele>
        <time>2022-04-13T12:59:05.000Z</time>
      </trkpt>
      <trkpt lat="43.47141" lon="6.29599">
        <ele>130.4</ele>
        <time>2022-04-13T12:59:09.000Z</time>
      </trkpt>
      <trkpt lat="43.4714" lon="6.29606">
        <ele>129.9</ele>
        <time>2022-04-13T12:59:13.000Z</time>
      </trkpt>
      <trkpt lat="43.4714" lon="6.29613">
        <ele>129.1</ele>
        <time>2022-04-13T12:59:18.000Z</time>
      </trkpt>
      <trkpt lat="43.47138" lon="6.29621">
        <ele>128.5</ele>
        <time>2022-04-13T12:59:23.000Z</time>
      </trkpt>
      <trkpt lat="43.47136" lon="6.29627">
        <ele>128.1</ele>
        <time>2022-04-13T12:59:26.000Z</time>
      </trkpt>
      <trkpt lat="43.47135" lon="6.29633">
        <ele>127.6</ele>
        <time>2022-04-13T12:59:30.000Z</time>
      </trkpt>
      <trkpt lat="43.47133" lon="6.29638">
        <ele>126.8</ele>
        <time>2022-04-13T12:59:36.000Z</time>
      </trkpt>
      <trkpt lat="43.4713" lon="6.29645">
        <ele>126.1</ele>
        <time>2022-04-13T12:59:41.000Z</time>
      </trkpt>
      <trkpt lat="43.47128" lon="6.29652">
        <ele>125.4</ele>
        <time>2022-04-13T12:59:46.000Z</time>
      </trkpt>
      <trkpt lat="43.47126" lon="6.29659">
        <ele>124.7</ele>
        <time>2022-04-13T12:59:51.000Z</time>
      </trkpt>
      <trkpt lat="43.47123" lon="6.29665">
        <ele>123.9</ele>
        <time>2022-04-13T12:59:56.000Z</time>
      </trkpt>
      <trkpt lat="43.47122" lon="6.29671">
        <ele>123.4</ele>
        <time>2022-04-13T13:00:00.000Z</time>
      </trkpt>
      <trkpt lat="43.4712" lon="6.29677">
        <ele>122.8</ele>
        <time>2022-04-13T13:00:04.000Z</time>
      </trkpt>
      <trkpt lat="43.47119" lon="6.29683">
        <ele>122.1</ele>
        <time>2022-04-13T13:00:08.000Z</time>
      </trkpt>
      <trkpt lat="43.47118" lon="6.29691">
        <ele>121.2</ele>
        <time>2022-04-13T13:00:13.000Z</time>
      </trkpt>
      <trkpt lat="43.47116" lon="6.29697">
        <ele>120.6</ele>
        <time>2022-04-13T13:00:17.000Z</time>
      </trkpt>
      <trkpt lat="43.47114" lon="6.29703">
        <ele>120</ele>
        <time>2022-04-13T13:00:22.000Z</time>
      </trkpt>
      <trkpt lat="43.47113" lon="6.2971">
        <ele>119.5</ele>
        <time>2022-04-13T13:00:27.000Z</time>
      </trkpt>
      <trkpt lat="43.47112" lon="6.29716">
        <ele>118.9</ele>
        <time>2022-04-13T13:00:31.000Z</time>
      </trkpt>
      <trkpt lat="43.47111" lon="6.29723">
        <ele>117.8</ele>
        <time>2022-04-13T13:00:36.000Z</time>
      </trkpt>
      <trkpt lat="43.47108" lon="6.29729">
        <ele>117</ele>
        <time>2022-04-13T13:00:40.000Z</time>
      </trkpt>
      <trkpt lat="43.47105" lon="6.29736">
        <ele>116.1</ele>
        <time>2022-04-13T13:00:46.000Z</time>
      </trkpt>
      <trkpt lat="43.47103" lon="6.29743">
        <ele>115.4</ele>
        <time>2022-04-13T13:00:51.000Z</time>
      </trkpt>
      <trkpt lat="43.47101" lon="6.29748">
        <ele>114.9</ele>
        <time>2022-04-13T13:00:55.000Z</time>
      </trkpt>
      <trkpt lat="43.47098" lon="6.29754">
        <ele>114.3</ele>
        <time>2022-04-13T13:00:59.000Z</time>
      </trkpt>
      <trkpt lat="43.47095" lon="6.29761">
        <ele>113.5</ele>
        <time>2022-04-13T13:01:04.000Z</time>
      </trkpt>
      <trkpt lat="43.47091" lon="6.29766">
        <ele>112.9</ele>
        <time>2022-04-13T13:01:08.000Z</time>
      </trkpt>
      <trkpt lat="43.47087" lon="6.29769">
        <ele>112.3</ele>
        <time>2022-04-13T13:01:13.000Z</time>
      </trkpt>
      <trkpt lat="43.47082" lon="6.29773">
        <ele>111.9</ele>
        <time>2022-04-13T13:01:18.000Z</time>
      </trkpt>
      <trkpt lat="43.47077" lon="6.29776">
        <ele>111.6</ele>
        <time>2022-04-13T13:01:23.000Z</time>
      </trkpt>
      <trkpt lat="43.47073" lon="6.29779">
        <ele>111.4</ele>
        <time>2022-04-13T13:01:28.000Z</time>
      </trkpt>
      <trkpt lat="43.47068" lon="6.29782">
        <ele>111.5</ele>
        <time>2022-04-13T13:01:33.000Z</time>
      </trkpt>
      <trkpt lat="43.47064" lon="6.29784">
        <ele>111.6</ele>
        <time>2022-04-13T13:01:37.000Z</time>
      </trkpt>
      <trkpt lat="43.4706" lon="6.29789">
        <ele>111.6</ele>
        <time>2022-04-13T13:01:43.000Z</time>
      </trkpt>
      <trkpt lat="43.47056" lon="6.29792">
        <ele>111.7</ele>
        <time>2022-04-13T13:01:48.000Z</time>
      </trkpt>
      <trkpt lat="43.47052" lon="6.29795">
        <ele>111.8</ele>
        <time>2022-04-13T13:01:55.000Z</time>
      </trkpt>
      <trkpt lat="43.47048" lon="6.29799">
        <ele>111.8</ele>
        <time>2022-04-13T13:01:59.000Z</time>
      </trkpt>
      <trkpt lat="43.47043" lon="6.29803">
        <ele>111.8</ele>
        <time>2022-04-13T13:02:04.000Z</time>
      </trkpt>
      <trkpt lat="43.47039" lon="6.29808">
        <ele>111.5</ele>
        <time>2022-04-13T13:02:09.000Z</time>
      </trkpt>
      <trkpt lat="43.47036" lon="6.29813">
        <ele>111.3</ele>
        <time>2022-04-13T13:02:13.000Z</time>
      </trkpt>
      <trkpt lat="43.47032" lon="6.29817">
        <ele>111</ele>
        <time>2022-04-13T13:02:18.000Z</time>
      </trkpt>
      <trkpt lat="43.4703" lon="6.29824">
        <ele>110.6</ele>
        <time>2022-04-13T13:02:24.000Z</time>
      </trkpt>
      <trkpt lat="43.47028" lon="6.2983">
        <ele>110.3</ele>
        <time>2022-04-13T13:02:30.000Z</time>
      </trkpt>
      <trkpt lat="43.47024" lon="6.29835">
        <ele>109.8</ele>
        <time>2022-04-13T13:02:38.000Z</time>
      </trkpt>
      <trkpt lat="43.47021" lon="6.29841">
        <ele>109.6</ele>
        <time>2022-04-13T13:02:43.000Z</time>
      </trkpt>
      <trkpt lat="43.47018" lon="6.29847">
        <ele>109.2</ele>
        <time>2022-04-13T13:02:48.000Z</time>
      </trkpt>
      <trkpt lat="43.47016" lon="6.29853">
        <ele>108.8</ele>
        <time>2022-04-13T13:02:52.000Z</time>
      </trkpt>
      <trkpt lat="43.47014" lon="6.29859">
        <ele>108.4</ele>
        <time>2022-04-13T13:02:57.000Z</time>
      </trkpt>
      <trkpt lat="43.4701" lon="6.29864">
        <ele>108.1</ele>
        <time>2022-04-13T13:03:02.000Z</time>
      </trkpt>
      <trkpt lat="43.47007" lon="6.2987">
        <ele>107.8</ele>
        <time>2022-04-13T13:03:07.000Z</time>
      </trkpt>
      <trkpt lat="43.47005" lon="6.29875">
        <ele>107.7</ele>
        <time>2022-04-13T13:03:11.000Z</time>
      </trkpt>
      <trkpt lat="43.47003" lon="6.29882">
        <ele>107.5</ele>
        <time>2022-04-13T13:03:16.000Z</time>
      </trkpt>
      <trkpt lat="43.47001" lon="6.29887">
        <ele>107.4</ele>
        <time>2022-04-13T13:03:22.000Z</time>
      </trkpt>
      <trkpt lat="43.46999" lon="6.29893">
        <ele>107.5</ele>
        <time>2022-04-13T13:03:33.000Z</time>
      </trkpt>
      <trkpt lat="43.46996" lon="6.29898">
        <ele>107.9</ele>
        <time>2022-04-13T13:03:54.000Z</time>
      </trkpt>
      <trkpt lat="43.46995" lon="6.29905">
        <ele>108.1</ele>
        <time>2022-04-13T13:04:24.000Z</time>
      </trkpt>
      <trkpt lat="43.46991" lon="6.29909">
        <ele>108.1</ele>
        <time>2022-04-13T13:04:32.000Z</time>
      </trkpt>
      <trkpt lat="43.46988" lon="6.29914">
        <ele>108.1</ele>
        <time>2022-04-13T13:04:38.000Z</time>
      </trkpt>
      <trkpt lat="43.46985" lon="6.29919">
        <ele>108.4</ele>
        <time>2022-04-13T13:04:46.000Z</time>
      </trkpt>
      <trkpt lat="43.46982" lon="6.29924">
        <ele>108.8</ele>
        <time>2022-04-13T13:04:52.000Z</time>
      </trkpt>
      <trkpt lat="43.46978" lon="6.2993">
        <ele>109</ele>
        <time>2022-04-13T13:04:58.000Z</time>
      </trkpt>
      <trkpt lat="43.46976" lon="6.29935">
        <ele>109.2</ele>
        <time>2022-04-13T13:05:05.000Z</time>
      </trkpt>
      <trkpt lat="43.46974" lon="6.2994">
        <ele>109.3</ele>
        <time>2022-04-13T13:05:11.000Z</time>
      </trkpt>
      <trkpt lat="43.46971" lon="6.29946">
        <ele>109.3</ele>
        <time>2022-04-13T13:05:24.000Z</time>
      </trkpt>
      <trkpt lat="43.46971" lon="6.29952">
        <ele>109</ele>
        <time>2022-04-13T13:06:01.000Z</time>
      </trkpt>
      <trkpt lat="43.4697" lon="6.29958">
        <ele>108.7</ele>
        <time>2022-04-13T13:07:12.000Z</time>
      </trkpt>
      <trkpt lat="43.46969" lon="6.29965">
        <ele>108.8</ele>
        <time>2022-04-13T13:07:19.000Z</time>
      </trkpt>
      <trkpt lat="43.46968" lon="6.29971">
        <ele>108.9</ele>
        <time>2022-04-13T13:07:25.000Z</time>
      </trkpt>
      <trkpt lat="43.46967" lon="6.29978">
        <ele>109</ele>
        <time>2022-04-13T13:07:31.000Z</time>
      </trkpt>
      <trkpt lat="43.46966" lon="6.29984">
        <ele>109.1</ele>
        <time>2022-04-13T13:07:36.000Z</time>
      </trkpt>
      <trkpt lat="43.46964" lon="6.2999">
        <ele>109.2</ele>
        <time>2022-04-13T13:07:41.000Z</time>
      </trkpt>
      <trkpt lat="43.46962" lon="6.29996">
        <ele>109.4</ele>
        <time>2022-04-13T13:07:46.000Z</time>
      </trkpt>
      <trkpt lat="43.46961" lon="6.30003">
        <ele>109.5</ele>
        <time>2022-04-13T13:07:52.000Z</time>
      </trkpt>
      <trkpt lat="43.46957" lon="6.30008">
        <ele>109.6</ele>
        <time>2022-04-13T13:07:58.000Z</time>
      </trkpt>
      <trkpt lat="43.46956" lon="6.30014">
        <ele>109.6</ele>
        <time>2022-04-13T13:08:02.000Z</time>
      </trkpt>
      <trkpt lat="43.46955" lon="6.30021">
        <ele>109.6</ele>
        <time>2022-04-13T13:08:06.000Z</time>
      </trkpt>
      <trkpt lat="43.46953" lon="6.30028">
        <ele>109.6</ele>
        <time>2022-04-13T13:08:10.000Z</time>
      </trkpt>
      <trkpt lat="43.46951" lon="6.30034">
        <ele>109.5</ele>
        <time>2022-04-13T13:08:14.000Z</time>
      </trkpt>
      <trkpt lat="43.46948" lon="6.30041">
        <ele>109.4</ele>
        <time>2022-04-13T13:08:18.000Z</time>
      </trkpt>
      <trkpt lat="43.46946" lon="6.30047">
        <ele>109.4</ele>
        <time>2022-04-13T13:08:22.000Z</time>
      </trkpt>
      <trkpt lat="43.46946" lon="6.30054">
        <ele>109.3</ele>
        <time>2022-04-13T13:08:28.000Z</time>
      </trkpt>
      <trkpt lat="43.46943" lon="6.30061">
        <ele>109.2</ele>
        <time>2022-04-13T13:08:33.000Z</time>
      </trkpt>
      <trkpt lat="43.46941" lon="6.30068">
        <ele>109.2</ele>
        <time>2022-04-13T13:08:38.000Z</time>
      </trkpt>
      <trkpt lat="43.46939" lon="6.30074">
        <ele>109.2</ele>
        <time>2022-04-13T13:08:42.000Z</time>
      </trkpt>
      <trkpt lat="43.46937" lon="6.3008">
        <ele>109.1</ele>
        <time>2022-04-13T13:08:46.000Z</time>
      </trkpt>
      <trkpt lat="43.46936" lon="6.30087">
        <ele>108.9</ele>
        <time>2022-04-13T13:08:50.000Z</time>
      </trkpt>
      <trkpt lat="43.46933" lon="6.30093">
        <ele>108.8</ele>
        <time>2022-04-13T13:08:54.000Z</time>
      </trkpt>
      <trkpt lat="43.46931" lon="6.30099">
        <ele>108.7</ele>
        <time>2022-04-13T13:08:58.000Z</time>
      </trkpt>
      <trkpt lat="43.46929" lon="6.30105">
        <ele>108.5</ele>
        <time>2022-04-13T13:09:02.000Z</time>
      </trkpt>
      <trkpt lat="43.46928" lon="6.30112">
        <ele>108.3</ele>
        <time>2022-04-13T13:09:07.000Z</time>
      </trkpt>
      <trkpt lat="43.46927" lon="6.30119">
        <ele>108.1</ele>
        <time>2022-04-13T13:09:12.000Z</time>
      </trkpt>
      <trkpt lat="43.46928" lon="6.30125">
        <ele>107.9</ele>
        <time>2022-04-13T13:09:16.000Z</time>
      </trkpt>
      <trkpt lat="43.4693" lon="6.30132">
        <ele>107.6</ele>
        <time>2022-04-13T13:09:20.000Z</time>
      </trkpt>
      <trkpt lat="43.46931" lon="6.30138">
        <ele>107.5</ele>
        <time>2022-04-13T13:09:24.000Z</time>
      </trkpt>
      <trkpt lat="43.46932" lon="6.30145">
        <ele>107.5</ele>
        <time>2022-04-13T13:09:28.000Z</time>
      </trkpt>
      <trkpt lat="43.46931" lon="6.30151">
        <ele>107.5</ele>
        <time>2022-04-13T13:09:32.000Z</time>
      </trkpt>
      <trkpt lat="43.4693" lon="6.30157">
        <ele>107.3</ele>
        <time>2022-04-13T13:09:37.000Z</time>
      </trkpt>
      <trkpt lat="43.46928" lon="6.30164">
        <ele>107.1</ele>
        <time>2022-04-13T13:09:41.000Z</time>
      </trkpt>
      <trkpt lat="43.46928" lon="6.30171">
        <ele>106.8</ele>
        <time>2022-04-13T13:09:46.000Z</time>
      </trkpt>
      <trkpt lat="43.46928" lon="6.30178">
        <ele>106.6</ele>
        <time>2022-04-13T13:09:51.000Z</time>
      </trkpt>
      <trkpt lat="43.46928" lon="6.30184">
        <ele>106.8</ele>
        <time>2022-04-13T13:09:55.000Z</time>
      </trkpt>
      <trkpt lat="43.46929" lon="6.30192">
        <ele>107</ele>
        <time>2022-04-13T13:09:59.000Z</time>
      </trkpt>
      <trkpt lat="43.4693" lon="6.30199">
        <ele>107.3</ele>
        <time>2022-04-13T13:10:03.000Z</time>
      </trkpt>
      <trkpt lat="43.46931" lon="6.30206">
        <ele>107.4</ele>
        <time>2022-04-13T13:10:07.000Z</time>
      </trkpt>
      <trkpt lat="43.46932" lon="6.30213">
        <ele>107.5</ele>
        <time>2022-04-13T13:10:11.000Z</time>
      </trkpt>
      <trkpt lat="43.46933" lon="6.30219">
        <ele>107.3</ele>
        <time>2022-04-13T13:10:16.000Z</time>
      </trkpt>
      <trkpt lat="43.46935" lon="6.30226">
        <ele>107.1</ele>
        <time>2022-04-13T13:10:21.000Z</time>
      </trkpt>
      <trkpt lat="43.46936" lon="6.30232">
        <ele>107</ele>
        <time>2022-04-13T13:10:27.000Z</time>
      </trkpt>
      <trkpt lat="43.46938" lon="6.30239">
        <ele>107</ele>
        <time>2022-04-13T13:10:33.000Z</time>
      </trkpt>
      <trkpt lat="43.4694" lon="6.30246">
        <ele>107</ele>
        <time>2022-04-13T13:10:37.000Z</time>
      </trkpt>
      <trkpt lat="43.46941" lon="6.30252">
        <ele>107</ele>
        <time>2022-04-13T13:10:41.000Z</time>
      </trkpt>
      <trkpt lat="43.46941" lon="6.3026">
        <ele>107.1</ele>
        <time>2022-04-13T13:10:46.000Z</time>
      </trkpt>
      <trkpt lat="43.46943" lon="6.30266">
        <ele>107.2</ele>
        <time>2022-04-13T13:10:50.000Z</time>
      </trkpt>
      <trkpt lat="43.46942" lon="6.30273">
        <ele>107.4</ele>
        <time>2022-04-13T13:10:55.000Z</time>
      </trkpt>
      <trkpt lat="43.46941" lon="6.3028">
        <ele>107.4</ele>
        <time>2022-04-13T13:11:00.000Z</time>
      </trkpt>
      <trkpt lat="43.46942" lon="6.30287">
        <ele>107.5</ele>
        <time>2022-04-13T13:11:04.000Z</time>
      </trkpt>
      <trkpt lat="43.46943" lon="6.30294">
        <ele>108.6</ele>
        <time>2022-04-13T13:11:20.000Z</time>
      </trkpt>
      <trkpt lat="43.46944" lon="6.30301">
        <ele>108.8</ele>
        <time>2022-04-13T13:11:25.000Z</time>
      </trkpt>
      <trkpt lat="43.46945" lon="6.30308">
        <ele>108.9</ele>
        <time>2022-04-13T13:11:31.000Z</time>
      </trkpt>
      <trkpt lat="43.46947" lon="6.30315">
        <ele>108.9</ele>
        <time>2022-04-13T13:11:36.000Z</time>
      </trkpt>
      <trkpt lat="43.4695" lon="6.30321">
        <ele>108.8</ele>
        <time>2022-04-13T13:11:41.000Z</time>
      </trkpt>
      <trkpt lat="43.46952" lon="6.30328">
        <ele>108.7</ele>
        <time>2022-04-13T13:11:46.000Z</time>
      </trkpt>
      <trkpt lat="43.46953" lon="6.30335">
        <ele>108.5</ele>
        <time>2022-04-13T13:11:51.000Z</time>
      </trkpt>
      <trkpt lat="43.46954" lon="6.30342">
        <ele>108.4</ele>
        <time>2022-04-13T13:11:55.000Z</time>
      </trkpt>
      <trkpt lat="43.46956" lon="6.30348">
        <ele>108.3</ele>
        <time>2022-04-13T13:11:59.000Z</time>
      </trkpt>
      <trkpt lat="43.46955" lon="6.30355">
        <ele>108.1</ele>
        <time>2022-04-13T13:12:05.000Z</time>
      </trkpt>
      <trkpt lat="43.46957" lon="6.30362">
        <ele>107.7</ele>
        <time>2022-04-13T13:12:10.000Z</time>
      </trkpt>
      <trkpt lat="43.46954" lon="6.30369">
        <ele>107.5</ele>
        <time>2022-04-13T13:12:14.000Z</time>
      </trkpt>
      <trkpt lat="43.46952" lon="6.30376">
        <ele>107.5</ele>
        <time>2022-04-13T13:12:18.000Z</time>
      </trkpt>
      <trkpt lat="43.4695" lon="6.30382">
        <ele>107.6</ele>
        <time>2022-04-13T13:12:22.000Z</time>
      </trkpt>
      <trkpt lat="43.46948" lon="6.3039">
        <ele>107.9</ele>
        <time>2022-04-13T13:12:26.000Z</time>
      </trkpt>
      <trkpt lat="43.46947" lon="6.30396">
        <ele>108</ele>
        <time>2022-04-13T13:12:30.000Z</time>
      </trkpt>
      <trkpt lat="43.46944" lon="6.30402">
        <ele>108</ele>
        <time>2022-04-13T13:12:33.000Z</time>
      </trkpt>
      <trkpt lat="43.4694" lon="6.30407">
        <ele>108.2</ele>
        <time>2022-04-13T13:12:37.000Z</time>
      </trkpt>
      <trkpt lat="43.46937" lon="6.30413">
        <ele>108.4</ele>
        <time>2022-04-13T13:12:41.000Z</time>
      </trkpt>
      <trkpt lat="43.46933" lon="6.30419">
        <ele>108.5</ele>
        <time>2022-04-13T13:12:46.000Z</time>
      </trkpt>
      <trkpt lat="43.4693" lon="6.30424">
        <ele>108.6</ele>
        <time>2022-04-13T13:12:50.000Z</time>
      </trkpt>
      <trkpt lat="43.46927" lon="6.30429">
        <ele>108.6</ele>
        <time>2022-04-13T13:12:54.000Z</time>
      </trkpt>
      <trkpt lat="43.46923" lon="6.30435">
        <ele>108.8</ele>
        <time>2022-04-13T13:12:59.000Z</time>
      </trkpt>
      <trkpt lat="43.4692" lon="6.30441">
        <ele>109</ele>
        <time>2022-04-13T13:13:04.000Z</time>
      </trkpt>
      <trkpt lat="43.46918" lon="6.30447">
        <ele>109.2</ele>
        <time>2022-04-13T13:13:09.000Z</time>
      </trkpt>
      <trkpt lat="43.46916" lon="6.30453">
        <ele>109.5</ele>
        <time>2022-04-13T13:13:14.000Z</time>
      </trkpt>
      <trkpt lat="43.46914" lon="6.30459">
        <ele>109.5</ele>
        <time>2022-04-13T13:13:19.000Z</time>
      </trkpt>
      <trkpt lat="43.46913" lon="6.30466">
        <ele>109.5</ele>
        <time>2022-04-13T13:13:24.000Z</time>
      </trkpt>
      <trkpt lat="43.46909" lon="6.30462">
        <ele>109.8</ele>
        <time>2022-04-13T13:13:46.000Z</time>
      </trkpt>
      <trkpt lat="43.46909" lon="6.30455">
        <ele>109.4</ele>
        <time>2022-04-13T13:13:59.000Z</time>
      </trkpt>
      <trkpt lat="43.46911" lon="6.30449">
        <ele>109.4</ele>
        <time>2022-04-13T13:14:27.000Z</time>
      </trkpt>
      <trkpt lat="43.46908" lon="6.30444">
        <ele>109.2</ele>
        <time>2022-04-13T13:14:41.000Z</time>
      </trkpt>
      <trkpt lat="43.46906" lon="6.30438">
        <ele>108.9</ele>
        <time>2022-04-13T13:15:03.000Z</time>
      </trkpt>
      <trkpt lat="43.46904" lon="6.30443">
        <ele>108.4</ele>
        <time>2022-04-13T13:16:21.000Z</time>
      </trkpt>
      <trkpt lat="43.46902" lon="6.30437">
        <ele>108.2</ele>
        <time>2022-04-13T13:16:43.000Z</time>
      </trkpt>
      <trkpt lat="43.46902" lon="6.3043">
        <ele>108.2</ele>
        <time>2022-04-13T13:16:49.000Z</time>
      </trkpt>
      <trkpt lat="43.46901" lon="6.30424">
        <ele>108.2</ele>
        <time>2022-04-13T13:16:55.000Z</time>
      </trkpt>
      <trkpt lat="43.46901" lon="6.30417">
        <ele>108.4</ele>
        <time>2022-04-13T13:17:01.000Z</time>
      </trkpt>
      <trkpt lat="43.469" lon="6.3041">
        <ele>108.5</ele>
        <time>2022-04-13T13:17:08.000Z</time>
      </trkpt>
      <trkpt lat="43.46899" lon="6.30404">
        <ele>108.6</ele>
        <time>2022-04-13T13:17:14.000Z</time>
      </trkpt>
      <trkpt lat="43.46897" lon="6.30398">
        <ele>108.7</ele>
        <time>2022-04-13T13:17:21.000Z</time>
      </trkpt>
      <trkpt lat="43.46894" lon="6.30394">
        <ele>108.8</ele>
        <time>2022-04-13T13:17:28.000Z</time>
      </trkpt>
      <trkpt lat="43.4689" lon="6.30389">
        <ele>108.8</ele>
        <time>2022-04-13T13:17:34.000Z</time>
      </trkpt>
      <trkpt lat="43.46885" lon="6.30387">
        <ele>108.9</ele>
        <time>2022-04-13T13:17:41.000Z</time>
      </trkpt>
      <trkpt lat="43.46882" lon="6.30382">
        <ele>109</ele>
        <time>2022-04-13T13:17:46.000Z</time>
      </trkpt>
      <trkpt lat="43.46879" lon="6.30377">
        <ele>109</ele>
        <time>2022-04-13T13:17:52.000Z</time>
      </trkpt>
      <trkpt lat="43.46875" lon="6.30378">
        <ele>108.4</ele>
        <time>2022-04-13T13:18:17.000Z</time>
      </trkpt>
      <trkpt lat="43.46873" lon="6.30372">
        <ele>108.6</ele>
        <time>2022-04-13T13:18:59.000Z</time>
      </trkpt>
      <trkpt lat="43.46869" lon="6.30368">
        <ele>109.1</ele>
        <time>2022-04-13T13:19:08.000Z</time>
      </trkpt>
      <trkpt lat="43.46864" lon="6.30365">
        <ele>109.7</ele>
        <time>2022-04-13T13:19:14.000Z</time>
      </trkpt>
      <trkpt lat="43.4686" lon="6.30362">
        <ele>110.4</ele>
        <time>2022-04-13T13:19:19.000Z</time>
      </trkpt>
      <trkpt lat="43.46856" lon="6.30357">
        <ele>111.3</ele>
        <time>2022-04-13T13:19:25.000Z</time>
      </trkpt>
      <trkpt lat="43.46852" lon="6.30352">
        <ele>112.2</ele>
        <time>2022-04-13T13:19:31.000Z</time>
      </trkpt>
      <trkpt lat="43.46848" lon="6.30348">
        <ele>112.7</ele>
        <time>2022-04-13T13:19:36.000Z</time>
      </trkpt>
      <trkpt lat="43.46846" lon="6.30343">
        <ele>113.5</ele>
        <time>2022-04-13T13:19:43.000Z</time>
      </trkpt>
      <trkpt lat="43.46842" lon="6.30339">
        <ele>113.9</ele>
        <time>2022-04-13T13:19:49.000Z</time>
      </trkpt>
      <trkpt lat="43.46837" lon="6.30335">
        <ele>114.3</ele>
        <time>2022-04-13T13:19:55.000Z</time>
      </trkpt>
      <trkpt lat="43.46833" lon="6.30332">
        <ele>114.4</ele>
        <time>2022-04-13T13:20:00.000Z</time>
      </trkpt>
      <trkpt lat="43.46828" lon="6.30328">
        <ele>114.7</ele>
        <time>2022-04-13T13:20:04.000Z</time>
      </trkpt>
      <trkpt lat="43.46824" lon="6.30324">
        <ele>114.9</ele>
        <time>2022-04-13T13:20:08.000Z</time>
      </trkpt>
      <trkpt lat="43.4682" lon="6.30321">
        <ele>115.2</ele>
        <time>2022-04-13T13:20:12.000Z</time>
      </trkpt>
      <trkpt lat="43.46816" lon="6.30318">
        <ele>115.7</ele>
        <time>2022-04-13T13:20:17.000Z</time>
      </trkpt>
      <trkpt lat="43.46811" lon="6.30315">
        <ele>116</ele>
        <time>2022-04-13T13:20:22.000Z</time>
      </trkpt>
      <trkpt lat="43.46808" lon="6.3031">
        <ele>116.4</ele>
        <time>2022-04-13T13:20:27.000Z</time>
      </trkpt>
      <trkpt lat="43.46805" lon="6.30304">
        <ele>117.2</ele>
        <time>2022-04-13T13:20:34.000Z</time>
      </trkpt>
      <trkpt lat="43.46802" lon="6.30299">
        <ele>117.7</ele>
        <time>2022-04-13T13:20:39.000Z</time>
      </trkpt>
      <trkpt lat="43.46798" lon="6.30294">
        <ele>118.1</ele>
        <time>2022-04-13T13:20:43.000Z</time>
      </trkpt>
      <trkpt lat="43.46796" lon="6.30287">
        <ele>118.4</ele>
        <time>2022-04-13T13:20:48.000Z</time>
      </trkpt>
      <trkpt lat="43.46795" lon="6.30281">
        <ele>118.5</ele>
        <time>2022-04-13T13:20:52.000Z</time>
      </trkpt>
      <trkpt lat="43.46794" lon="6.30274">
        <ele>118.5</ele>
        <time>2022-04-13T13:20:57.000Z</time>
      </trkpt>
      <trkpt lat="43.46792" lon="6.30268">
        <ele>118.5</ele>
        <time>2022-04-13T13:21:02.000Z</time>
      </trkpt>
      <trkpt lat="43.46789" lon="6.30263">
        <ele>118.6</ele>
        <time>2022-04-13T13:21:07.000Z</time>
      </trkpt>
      <trkpt lat="43.46785" lon="6.30258">
        <ele>118.7</ele>
        <time>2022-04-13T13:21:12.000Z</time>
      </trkpt>
      <trkpt lat="43.46783" lon="6.30252">
        <ele>118.8</ele>
        <time>2022-04-13T13:21:16.000Z</time>
      </trkpt>
      <trkpt lat="43.46781" lon="6.30245">
        <ele>119</ele>
        <time>2022-04-13T13:21:21.000Z</time>
      </trkpt>
      <trkpt lat="43.46779" lon="6.30239">
        <ele>119.3</ele>
        <time>2022-04-13T13:21:26.000Z</time>
      </trkpt>
      <trkpt lat="43.46779" lon="6.30233">
        <ele>119.7</ele>
        <time>2022-04-13T13:21:31.000Z</time>
      </trkpt>
      <trkpt lat="43.46778" lon="6.30226">
        <ele>119.8</ele>
        <time>2022-04-13T13:21:36.000Z</time>
      </trkpt>
      <trkpt lat="43.46775" lon="6.30221">
        <ele>119.9</ele>
        <time>2022-04-13T13:21:40.000Z</time>
      </trkpt>
      <trkpt lat="43.46772" lon="6.30215">
        <ele>120</ele>
        <time>2022-04-13T13:21:45.000Z</time>
      </trkpt>
      <trkpt lat="43.4677" lon="6.3021">
        <ele>120</ele>
        <time>2022-04-13T13:21:49.000Z</time>
      </trkpt>
      <trkpt lat="43.46768" lon="6.30204">
        <ele>120.1</ele>
        <time>2022-04-13T13:21:53.000Z</time>
      </trkpt>
      <trkpt lat="43.46765" lon="6.30198">
        <ele>120.3</ele>
        <time>2022-04-13T13:21:57.000Z</time>
      </trkpt>
      <trkpt lat="43.46763" lon="6.30192">
        <ele>120.5</ele>
        <time>2022-04-13T13:22:01.000Z</time>
      </trkpt>
      <trkpt lat="43.46762" lon="6.30185">
        <ele>120.7</ele>
        <time>2022-04-13T13:22:06.000Z</time>
      </trkpt>
      <trkpt lat="43.4676" lon="6.30179">
        <ele>120.7</ele>
        <time>2022-04-13T13:22:12.000Z</time>
      </trkpt>
      <trkpt lat="43.46757" lon="6.30172">
        <ele>120.5</ele>
        <time>2022-04-13T13:22:18.000Z</time>
      </trkpt>
      <trkpt lat="43.46755" lon="6.30166">
        <ele>120.6</ele>
        <time>2022-04-13T13:22:23.000Z</time>
      </trkpt>
      <trkpt lat="43.46753" lon="6.3016">
        <ele>120.7</ele>
        <time>2022-04-13T13:22:28.000Z</time>
      </trkpt>
      <trkpt lat="43.46751" lon="6.30154">
        <ele>120.8</ele>
        <time>2022-04-13T13:22:33.000Z</time>
      </trkpt>
      <trkpt lat="43.46747" lon="6.30149">
        <ele>120.9</ele>
        <time>2022-04-13T13:22:39.000Z</time>
      </trkpt>
      <trkpt lat="43.46744" lon="6.30144">
        <ele>121.5</ele>
        <time>2022-04-13T13:22:45.000Z</time>
      </trkpt>
      <trkpt lat="43.4674" lon="6.3014">
        <ele>121.9</ele>
        <time>2022-04-13T13:22:49.000Z</time>
      </trkpt>
      <trkpt lat="43.46736" lon="6.30135">
        <ele>122.3</ele>
        <time>2022-04-13T13:22:53.000Z</time>
      </trkpt>
      <trkpt lat="43.46731" lon="6.30132">
        <ele>122.7</ele>
        <time>2022-04-13T13:22:58.000Z</time>
      </trkpt>
      <trkpt lat="43.46727" lon="6.30127">
        <ele>123.1</ele>
        <time>2022-04-13T13:23:03.000Z</time>
      </trkpt>
      <trkpt lat="43.46724" lon="6.30121">
        <ele>123.5</ele>
        <time>2022-04-13T13:23:11.000Z</time>
      </trkpt>
      <trkpt lat="43.46724" lon="6.30114">
        <ele>123.7</ele>
        <time>2022-04-13T13:23:16.000Z</time>
      </trkpt>
      <trkpt lat="43.46722" lon="6.30108">
        <ele>123.9</ele>
        <time>2022-04-13T13:23:22.000Z</time>
      </trkpt>
      <trkpt lat="43.46719" lon="6.30102">
        <ele>124.1</ele>
        <time>2022-04-13T13:23:27.000Z</time>
      </trkpt>
      <trkpt lat="43.46716" lon="6.30096">
        <ele>124.3</ele>
        <time>2022-04-13T13:23:32.000Z</time>
      </trkpt>
      <trkpt lat="43.46712" lon="6.30091">
        <ele>124.8</ele>
        <time>2022-04-13T13:23:37.000Z</time>
      </trkpt>
      <trkpt lat="43.46712" lon="6.30085">
        <ele>125.4</ele>
        <time>2022-04-13T13:23:43.000Z</time>
      </trkpt>
      <trkpt lat="43.46712" lon="6.30079">
        <ele>126.7</ele>
        <time>2022-04-13T13:24:10.000Z</time>
      </trkpt>
      <trkpt lat="43.46708" lon="6.30073">
        <ele>126.8</ele>
        <time>2022-04-13T13:24:18.000Z</time>
      </trkpt>
      <trkpt lat="43.46704" lon="6.30069">
        <ele>126.9</ele>
        <time>2022-04-13T13:24:24.000Z</time>
      </trkpt>
      <trkpt lat="43.46701" lon="6.30065">
        <ele>126.9</ele>
        <time>2022-04-13T13:24:29.000Z</time>
      </trkpt>
      <trkpt lat="43.46697" lon="6.3006">
        <ele>127</ele>
        <time>2022-04-13T13:24:34.000Z</time>
      </trkpt>
      <trkpt lat="43.46697" lon="6.30054">
        <ele>127.5</ele>
        <time>2022-04-13T13:24:52.000Z</time>
      </trkpt>
      <trkpt lat="43.46692" lon="6.30057">
        <ele>128.3</ele>
        <time>2022-04-13T13:26:26.000Z</time>
      </trkpt>
      <trkpt lat="43.46696" lon="6.30052">
        <ele>128.6</ele>
        <time>2022-04-13T13:26:43.000Z</time>
      </trkpt>
      <trkpt lat="43.46692" lon="6.30048">
        <ele>128.5</ele>
        <time>2022-04-13T13:28:57.000Z</time>
      </trkpt>
      <trkpt lat="43.46687" lon="6.30047">
        <ele>128.5</ele>
        <time>2022-04-13T13:29:04.000Z</time>
      </trkpt>
      <trkpt lat="43.46682" lon="6.30045">
        <ele>128.5</ele>
        <time>2022-04-13T13:29:09.000Z</time>
      </trkpt>
      <trkpt lat="43.46677" lon="6.30041">
        <ele>128.6</ele>
        <time>2022-04-13T13:29:13.000Z</time>
      </trkpt>
      <trkpt lat="43.46674" lon="6.30037">
        <ele>128.7</ele>
        <time>2022-04-13T13:29:17.000Z</time>
      </trkpt>
      <trkpt lat="43.46672" lon="6.30031">
        <ele>128.8</ele>
        <time>2022-04-13T13:29:22.000Z</time>
      </trkpt>
      <trkpt lat="43.46672" lon="6.30025">
        <ele>128.9</ele>
        <time>2022-04-13T13:29:25.000Z</time>
      </trkpt>
      <trkpt lat="43.46671" lon="6.30017">
        <ele>129</ele>
        <time>2022-04-13T13:29:29.000Z</time>
      </trkpt>
      <trkpt lat="43.46668" lon="6.30012">
        <ele>129.1</ele>
        <time>2022-04-13T13:29:34.000Z</time>
      </trkpt>
      <trkpt lat="43.46666" lon="6.30006">
        <ele>129.1</ele>
        <time>2022-04-13T13:29:39.000Z</time>
      </trkpt>
      <trkpt lat="43.46664" lon="6.3">
        <ele>129.2</ele>
        <time>2022-04-13T13:29:44.000Z</time>
      </trkpt>
      <trkpt lat="43.46661" lon="6.29995">
        <ele>129.2</ele>
        <time>2022-04-13T13:29:49.000Z</time>
      </trkpt>
      <trkpt lat="43.46657" lon="6.29991">
        <ele>129.2</ele>
        <time>2022-04-13T13:29:53.000Z</time>
      </trkpt>
      <trkpt lat="43.46654" lon="6.29985">
        <ele>129.2</ele>
        <time>2022-04-13T13:29:58.000Z</time>
      </trkpt>
      <trkpt lat="43.46651" lon="6.29979">
        <ele>129.7</ele>
        <time>2022-04-13T13:30:03.000Z</time>
      </trkpt>
      <trkpt lat="43.4665" lon="6.29972">
        <ele>130.2</ele>
        <time>2022-04-13T13:30:08.000Z</time>
      </trkpt>
      <trkpt lat="43.46648" lon="6.29966">
        <ele>130.7</ele>
        <time>2022-04-13T13:30:13.000Z</time>
      </trkpt>
      <trkpt lat="43.46647" lon="6.29959">
        <ele>131.1</ele>
        <time>2022-04-13T13:30:18.000Z</time>
      </trkpt>
      <trkpt lat="43.46644" lon="6.29953">
        <ele>131.3</ele>
        <time>2022-04-13T13:30:23.000Z</time>
      </trkpt>
      <trkpt lat="43.4664" lon="6.29948">
        <ele>131.7</ele>
        <time>2022-04-13T13:30:29.000Z</time>
      </trkpt>
      <trkpt lat="43.46637" lon="6.29944">
        <ele>131.9</ele>
        <time>2022-04-13T13:30:34.000Z</time>
      </trkpt>
      <trkpt lat="43.46633" lon="6.29941">
        <ele>132.3</ele>
        <time>2022-04-13T13:30:41.000Z</time>
      </trkpt>
      <trkpt lat="43.46629" lon="6.29937">
        <ele>132.8</ele>
        <time>2022-04-13T13:30:55.000Z</time>
      </trkpt>
      <trkpt lat="43.46626" lon="6.29933">
        <ele>132.9</ele>
        <time>2022-04-13T13:31:01.000Z</time>
      </trkpt>
      <trkpt lat="43.46623" lon="6.29927">
        <ele>133.1</ele>
        <time>2022-04-13T13:31:08.000Z</time>
      </trkpt>
      <trkpt lat="43.46621" lon="6.2992">
        <ele>133.3</ele>
        <time>2022-04-13T13:31:14.000Z</time>
      </trkpt>
      <trkpt lat="43.46617" lon="6.29916">
        <ele>133.4</ele>
        <time>2022-04-13T13:31:17.000Z</time>
      </trkpt>
      <trkpt lat="43.46614" lon="6.29912">
        <ele>133.5</ele>
        <time>2022-04-13T13:31:20.000Z</time>
      </trkpt>
      <trkpt lat="43.4661" lon="6.29908">
        <ele>133.6</ele>
        <time>2022-04-13T13:31:24.000Z</time>
      </trkpt>
      <trkpt lat="43.46605" lon="6.29906">
        <ele>133.8</ele>
        <time>2022-04-13T13:31:29.000Z</time>
      </trkpt>
      <trkpt lat="43.46601" lon="6.29903">
        <ele>134</ele>
        <time>2022-04-13T13:31:35.000Z</time>
      </trkpt>
      <trkpt lat="43.46597" lon="6.299">
        <ele>134.6</ele>
        <time>2022-04-13T13:31:41.000Z</time>
      </trkpt>
      <trkpt lat="43.46592" lon="6.29896">
        <ele>135</ele>
        <time>2022-04-13T13:31:45.000Z</time>
      </trkpt>
      <trkpt lat="43.46587" lon="6.29893">
        <ele>135.5</ele>
        <time>2022-04-13T13:31:49.000Z</time>
      </trkpt>
      <trkpt lat="43.46582" lon="6.29892">
        <ele>136</ele>
        <time>2022-04-13T13:31:54.000Z</time>
      </trkpt>
      <trkpt lat="43.46576" lon="6.29891">
        <ele>136.5</ele>
        <time>2022-04-13T13:32:00.000Z</time>
      </trkpt>
      <trkpt lat="43.46571" lon="6.2989">
        <ele>137</ele>
        <time>2022-04-13T13:32:05.000Z</time>
      </trkpt>
      <trkpt lat="43.46566" lon="6.29891">
        <ele>137.9</ele>
        <time>2022-04-13T13:32:12.000Z</time>
      </trkpt>
      <trkpt lat="43.46561" lon="6.29891">
        <ele>138.7</ele>
        <time>2022-04-13T13:32:18.000Z</time>
      </trkpt>
      <trkpt lat="43.46556" lon="6.29889">
        <ele>139.3</ele>
        <time>2022-04-13T13:32:22.000Z</time>
      </trkpt>
      <trkpt lat="43.46551" lon="6.29889">
        <ele>139.9</ele>
        <time>2022-04-13T13:32:27.000Z</time>
      </trkpt>
      <trkpt lat="43.46546" lon="6.29891">
        <ele>140.5</ele>
        <time>2022-04-13T13:32:32.000Z</time>
      </trkpt>
      <trkpt lat="43.46542" lon="6.29893">
        <ele>141.4</ele>
        <time>2022-04-13T13:32:37.000Z</time>
      </trkpt>
      <trkpt lat="43.46537" lon="6.29895">
        <ele>142.1</ele>
        <time>2022-04-13T13:32:42.000Z</time>
      </trkpt>
      <trkpt lat="43.46532" lon="6.29898">
        <ele>142.7</ele>
        <time>2022-04-13T13:32:47.000Z</time>
      </trkpt>
      <trkpt lat="43.46527" lon="6.299">
        <ele>143.2</ele>
        <time>2022-04-13T13:32:51.000Z</time>
      </trkpt>
      <trkpt lat="43.46524" lon="6.29905">
        <ele>144</ele>
        <time>2022-04-13T13:32:57.000Z</time>
      </trkpt>
      <trkpt lat="43.46519" lon="6.29909">
        <ele>144.6</ele>
        <time>2022-04-13T13:33:02.000Z</time>
      </trkpt>
      <trkpt lat="43.46514" lon="6.29911">
        <ele>145</ele>
        <time>2022-04-13T13:33:06.000Z</time>
      </trkpt>
      <trkpt lat="43.4651" lon="6.29915">
        <ele>145.4</ele>
        <time>2022-04-13T13:33:10.000Z</time>
      </trkpt>
      <trkpt lat="43.46506" lon="6.29917">
        <ele>146</ele>
        <time>2022-04-13T13:33:14.000Z</time>
      </trkpt>
      <trkpt lat="43.46502" lon="6.29921">
        <ele>146.9</ele>
        <time>2022-04-13T13:33:19.000Z</time>
      </trkpt>
      <trkpt lat="43.46497" lon="6.29924">
        <ele>147.5</ele>
        <time>2022-04-13T13:33:24.000Z</time>
      </trkpt>
      <trkpt lat="43.46494" lon="6.29928">
        <ele>148</ele>
        <time>2022-04-13T13:33:29.000Z</time>
      </trkpt>
      <trkpt lat="43.4649" lon="6.29932">
        <ele>148.6</ele>
        <time>2022-04-13T13:33:35.000Z</time>
      </trkpt>
      <trkpt lat="43.46485" lon="6.29935">
        <ele>149.1</ele>
        <time>2022-04-13T13:33:40.000Z</time>
      </trkpt>
      <trkpt lat="43.46481" lon="6.29938">
        <ele>149.5</ele>
        <time>2022-04-13T13:33:44.000Z</time>
      </trkpt>
      <trkpt lat="43.46477" lon="6.29943">
        <ele>149.9</ele>
        <time>2022-04-13T13:33:49.000Z</time>
      </trkpt>
      <trkpt lat="43.46472" lon="6.29947">
        <ele>150.4</ele>
        <time>2022-04-13T13:33:54.000Z</time>
      </trkpt>
      <trkpt lat="43.46468" lon="6.29951">
        <ele>151</ele>
        <time>2022-04-13T13:34:00.000Z</time>
      </trkpt>
      <trkpt lat="43.46464" lon="6.29954">
        <ele>151.5</ele>
        <time>2022-04-13T13:34:05.000Z</time>
      </trkpt>
      <trkpt lat="43.4646" lon="6.29956">
        <ele>151.8</ele>
        <time>2022-04-13T13:34:09.000Z</time>
      </trkpt>
      <trkpt lat="43.46455" lon="6.29958">
        <ele>152</ele>
        <time>2022-04-13T13:34:13.000Z</time>
      </trkpt>
      <trkpt lat="43.4645" lon="6.2996">
        <ele>152.4</ele>
        <time>2022-04-13T13:34:17.000Z</time>
      </trkpt>
      <trkpt lat="43.46445" lon="6.29963">
        <ele>152.8</ele>
        <time>2022-04-13T13:34:21.000Z</time>
      </trkpt>
      <trkpt lat="43.46441" lon="6.29965">
        <ele>153.2</ele>
        <time>2022-04-13T13:34:25.000Z</time>
      </trkpt>
      <trkpt lat="43.46437" lon="6.29969">
        <ele>153.6</ele>
        <time>2022-04-13T13:34:30.000Z</time>
      </trkpt>
      <trkpt lat="43.46432" lon="6.29972">
        <ele>154.3</ele>
        <time>2022-04-13T13:34:36.000Z</time>
      </trkpt>
      <trkpt lat="43.46427" lon="6.29973">
        <ele>154.6</ele>
        <time>2022-04-13T13:34:40.000Z</time>
      </trkpt>
      <trkpt lat="43.46422" lon="6.29974">
        <ele>155</ele>
        <time>2022-04-13T13:34:45.000Z</time>
      </trkpt>
      <trkpt lat="43.46417" lon="6.29975">
        <ele>155.3</ele>
        <time>2022-04-13T13:34:51.000Z</time>
      </trkpt>
      <trkpt lat="43.46412" lon="6.29975">
        <ele>155.7</ele>
        <time>2022-04-13T13:35:06.000Z</time>
      </trkpt>
      <trkpt lat="43.46409" lon="6.29971">
        <ele>155.5</ele>
        <time>2022-04-13T13:37:02.000Z</time>
      </trkpt>
      <trkpt lat="43.4641" lon="6.29977">
        <ele>156</ele>
        <time>2022-04-13T13:38:23.000Z</time>
      </trkpt>
      <trkpt lat="43.46414" lon="6.29982">
        <ele>155.7</ele>
        <time>2022-04-13T13:38:51.000Z</time>
      </trkpt>
      <trkpt lat="43.46409" lon="6.29983">
        <ele>156.4</ele>
        <time>2022-04-13T13:39:46.000Z</time>
      </trkpt>
      <trkpt lat="43.46403" lon="6.29984">
        <ele>156.5</ele>
        <time>2022-04-13T13:39:51.000Z</time>
      </trkpt>
      <trkpt lat="43.46398" lon="6.29986">
        <ele>156.6</ele>
        <time>2022-04-13T13:39:56.000Z</time>
      </trkpt>
      <trkpt lat="43.46394" lon="6.29989">
        <ele>156.9</ele>
        <time>2022-04-13T13:40:02.000Z</time>
      </trkpt>
      <trkpt lat="43.46389" lon="6.29991">
        <ele>157.4</ele>
        <time>2022-04-13T13:40:08.000Z</time>
      </trkpt>
      <trkpt lat="43.46384" lon="6.29994">
        <ele>157.9</ele>
        <time>2022-04-13T13:40:12.000Z</time>
      </trkpt>
      <trkpt lat="43.46379" lon="6.29996">
        <ele>158.3</ele>
        <time>2022-04-13T13:40:16.000Z</time>
      </trkpt>
      <trkpt lat="43.46375" lon="6.29999">
        <ele>158.6</ele>
        <time>2022-04-13T13:40:20.000Z</time>
      </trkpt>
      <trkpt lat="43.4637" lon="6.30002">
        <ele>159.2</ele>
        <time>2022-04-13T13:40:25.000Z</time>
      </trkpt>
      <trkpt lat="43.46365" lon="6.30006">
        <ele>159.7</ele>
        <time>2022-04-13T13:40:31.000Z</time>
      </trkpt>
      <trkpt lat="43.46362" lon="6.3001">
        <ele>160.2</ele>
        <time>2022-04-13T13:40:36.000Z</time>
      </trkpt>
      <trkpt lat="43.46358" lon="6.30013">
        <ele>160.6</ele>
        <time>2022-04-13T13:40:40.000Z</time>
      </trkpt>
      <trkpt lat="43.46353" lon="6.30015">
        <ele>161.2</ele>
        <time>2022-04-13T13:40:45.000Z</time>
      </trkpt>
      <trkpt lat="43.46349" lon="6.30019">
        <ele>161.7</ele>
        <time>2022-04-13T13:40:50.000Z</time>
      </trkpt>
      <trkpt lat="43.46345" lon="6.30022">
        <ele>162.5</ele>
        <time>2022-04-13T13:40:55.000Z</time>
      </trkpt>
      <trkpt lat="43.4634" lon="6.30025">
        <ele>163.2</ele>
        <time>2022-04-13T13:41:00.000Z</time>
      </trkpt>
      <trkpt lat="43.46336" lon="6.30029">
        <ele>163.8</ele>
        <time>2022-04-13T13:41:04.000Z</time>
      </trkpt>
      <trkpt lat="43.46331" lon="6.30032">
        <ele>164.5</ele>
        <time>2022-04-13T13:41:09.000Z</time>
      </trkpt>
      <trkpt lat="43.46327" lon="6.30036">
        <ele>165.6</ele>
        <time>2022-04-13T13:41:14.000Z</time>
      </trkpt>
      <trkpt lat="43.46322" lon="6.3004">
        <ele>166.5</ele>
        <time>2022-04-13T13:41:19.000Z</time>
      </trkpt>
      <trkpt lat="43.46317" lon="6.30043">
        <ele>167.2</ele>
        <time>2022-04-13T13:41:24.000Z</time>
      </trkpt>
      <trkpt lat="43.46312" lon="6.30046">
        <ele>167.9</ele>
        <time>2022-04-13T13:41:29.000Z</time>
      </trkpt>
      <trkpt lat="43.46308" lon="6.30047">
        <ele>168.4</ele>
        <time>2022-04-13T13:41:33.000Z</time>
      </trkpt>
      <trkpt lat="43.46302" lon="6.3005">
        <ele>169</ele>
        <time>2022-04-13T13:41:37.000Z</time>
      </trkpt>
      <trkpt lat="43.46298" lon="6.30054">
        <ele>169.8</ele>
        <time>2022-04-13T13:41:43.000Z</time>
      </trkpt>
      <trkpt lat="43.46295" lon="6.30058">
        <ele>170.5</ele>
        <time>2022-04-13T13:41:48.000Z</time>
      </trkpt>
      <trkpt lat="43.46291" lon="6.30064">
        <ele>171.1</ele>
        <time>2022-04-13T13:41:53.000Z</time>
      </trkpt>
      <trkpt lat="43.46289" lon="6.3007">
        <ele>171.6</ele>
        <time>2022-04-13T13:41:57.000Z</time>
      </trkpt>
      <trkpt lat="43.46286" lon="6.30076">
        <ele>172.3</ele>
        <time>2022-04-13T13:42:02.000Z</time>
      </trkpt>
      <trkpt lat="43.46286" lon="6.30084">
        <ele>172.7</ele>
        <time>2022-04-13T13:42:07.000Z</time>
      </trkpt>
      <trkpt lat="43.46282" lon="6.30089">
        <ele>173</ele>
        <time>2022-04-13T13:42:11.000Z</time>
      </trkpt>
      <trkpt lat="43.46279" lon="6.30093">
        <ele>173.2</ele>
        <time>2022-04-13T13:42:15.000Z</time>
      </trkpt>
      <trkpt lat="43.46276" lon="6.30099">
        <ele>173.3</ele>
        <time>2022-04-13T13:42:20.000Z</time>
      </trkpt>
      <trkpt lat="43.46271" lon="6.301">
        <ele>173.5</ele>
        <time>2022-04-13T13:42:25.000Z</time>
      </trkpt>
      <trkpt lat="43.46266" lon="6.30098">
        <ele>173.9</ele>
        <time>2022-04-13T13:42:31.000Z</time>
      </trkpt>
      <trkpt lat="43.46261" lon="6.301">
        <ele>174.2</ele>
        <time>2022-04-13T13:42:36.000Z</time>
      </trkpt>
      <trkpt lat="43.46256" lon="6.30102">
        <ele>174.4</ele>
        <time>2022-04-13T13:42:40.000Z</time>
      </trkpt>
      <trkpt lat="43.4625" lon="6.30105">
        <ele>174.6</ele>
        <time>2022-04-13T13:42:44.000Z</time>
      </trkpt>
      <trkpt lat="43.46246" lon="6.30108">
        <ele>174.6</ele>
        <time>2022-04-13T13:42:48.000Z</time>
      </trkpt>
      <trkpt lat="43.46241" lon="6.30109">
        <ele>174.7</ele>
        <time>2022-04-13T13:42:52.000Z</time>
      </trkpt>
      <trkpt lat="43.46236" lon="6.30112">
        <ele>174.9</ele>
        <time>2022-04-13T13:42:57.000Z</time>
      </trkpt>
      <trkpt lat="43.46232" lon="6.30117">
        <ele>175</ele>
        <time>2022-04-13T13:43:02.000Z</time>
      </trkpt>
      <trkpt lat="43.46228" lon="6.30119">
        <ele>175.1</ele>
        <time>2022-04-13T13:43:06.000Z</time>
      </trkpt>
      <trkpt lat="43.46222" lon="6.30121">
        <ele>175.1</ele>
        <time>2022-04-13T13:43:10.000Z</time>
      </trkpt>
      <trkpt lat="43.46218" lon="6.30124">
        <ele>175.1</ele>
        <time>2022-04-13T13:43:14.000Z</time>
      </trkpt>
      <trkpt lat="43.46214" lon="6.30129">
        <ele>175.1</ele>
        <time>2022-04-13T13:43:18.000Z</time>
      </trkpt>
      <trkpt lat="43.46211" lon="6.30134">
        <ele>175.1</ele>
        <time>2022-04-13T13:43:23.000Z</time>
      </trkpt>
      <trkpt lat="43.46207" lon="6.30136">
        <ele>175.4</ele>
        <time>2022-04-13T13:43:28.000Z</time>
      </trkpt>
      <trkpt lat="43.46203" lon="6.30141">
        <ele>175.5</ele>
        <time>2022-04-13T13:43:34.000Z</time>
      </trkpt>
      <trkpt lat="43.462" lon="6.30147">
        <ele>175.5</ele>
        <time>2022-04-13T13:43:44.000Z</time>
      </trkpt>
      <trkpt lat="43.46195" lon="6.30149">
        <ele>175.5</ele>
        <time>2022-04-13T13:43:48.000Z</time>
      </trkpt>
      <trkpt lat="43.4619" lon="6.3015">
        <ele>175.5</ele>
        <time>2022-04-13T13:43:52.000Z</time>
      </trkpt>
      <trkpt lat="43.46185" lon="6.30149">
        <ele>175.5</ele>
        <time>2022-04-13T13:43:56.000Z</time>
      </trkpt>
      <trkpt lat="43.46182" lon="6.30144">
        <ele>175.2</ele>
        <time>2022-04-13T13:44:04.000Z</time>
      </trkpt>
      <trkpt lat="43.46179" lon="6.30149">
        <ele>174.8</ele>
        <time>2022-04-13T13:44:26.000Z</time>
      </trkpt>
      <trkpt lat="43.46174" lon="6.30151">
        <ele>174.6</ele>
        <time>2022-04-13T13:44:32.000Z</time>
      </trkpt>
      <trkpt lat="43.46169" lon="6.3015">
        <ele>174.4</ele>
        <time>2022-04-13T13:44:36.000Z</time>
      </trkpt>
      <trkpt lat="43.46164" lon="6.3015">
        <ele>174.3</ele>
        <time>2022-04-13T13:44:39.000Z</time>
      </trkpt>
      <trkpt lat="43.46159" lon="6.3015">
        <ele>173.7</ele>
        <time>2022-04-13T13:44:44.000Z</time>
      </trkpt>
      <trkpt lat="43.46154" lon="6.3015">
        <ele>173.1</ele>
        <time>2022-04-13T13:44:49.000Z</time>
      </trkpt>
      <trkpt lat="43.46149" lon="6.3015">
        <ele>172.7</ele>
        <time>2022-04-13T13:44:53.000Z</time>
      </trkpt>
      <trkpt lat="43.46145" lon="6.30152">
        <ele>171.9</ele>
        <time>2022-04-13T13:45:05.000Z</time>
      </trkpt>
      <trkpt lat="43.4614" lon="6.30148">
        <ele>170.5</ele>
        <time>2022-04-13T13:46:25.000Z</time>
      </trkpt>
      <trkpt lat="43.46138" lon="6.30142">
        <ele>170.6</ele>
        <time>2022-04-13T13:46:35.000Z</time>
      </trkpt>
      <trkpt lat="43.46134" lon="6.30139">
        <ele>170.5</ele>
        <time>2022-04-13T13:46:44.000Z</time>
      </trkpt>
      <trkpt lat="43.46135" lon="6.30133">
        <ele>170.3</ele>
        <time>2022-04-13T13:47:02.000Z</time>
      </trkpt>
      <trkpt lat="43.46132" lon="6.30128">
        <ele>170.7</ele>
        <time>2022-04-13T13:47:37.000Z</time>
      </trkpt>
      <trkpt lat="43.46127" lon="6.30125">
        <ele>170.9</ele>
        <time>2022-04-13T13:47:43.000Z</time>
      </trkpt>
      <trkpt lat="43.46125" lon="6.30119">
        <ele>171.1</ele>
        <time>2022-04-13T13:47:49.000Z</time>
      </trkpt>
      <trkpt lat="43.46123" lon="6.30113">
        <ele>171.2</ele>
        <time>2022-04-13T13:47:54.000Z</time>
      </trkpt>
      <trkpt lat="43.46121" lon="6.30106">
        <ele>171.2</ele>
        <time>2022-04-13T13:47:59.000Z</time>
      </trkpt>
      <trkpt lat="43.46118" lon="6.301">
        <ele>171.2</ele>
        <time>2022-04-13T13:48:04.000Z</time>
      </trkpt>
      <trkpt lat="43.46116" lon="6.30094">
        <ele>171.1</ele>
        <time>2022-04-13T13:48:09.000Z</time>
      </trkpt>
      <trkpt lat="43.46113" lon="6.30089">
        <ele>170.9</ele>
        <time>2022-04-13T13:48:15.000Z</time>
      </trkpt>
      <trkpt lat="43.46109" lon="6.30083">
        <ele>170.6</ele>
        <time>2022-04-13T13:48:21.000Z</time>
      </trkpt>
      <trkpt lat="43.46107" lon="6.30078">
        <ele>170.7</ele>
        <time>2022-04-13T13:48:29.000Z</time>
      </trkpt>
      <trkpt lat="43.46103" lon="6.30073">
        <ele>170.7</ele>
        <time>2022-04-13T13:48:34.000Z</time>
      </trkpt>
      <trkpt lat="43.46099" lon="6.3007">
        <ele>170.7</ele>
        <time>2022-04-13T13:48:39.000Z</time>
      </trkpt>
      <trkpt lat="43.46095" lon="6.30066">
        <ele>171</ele>
        <time>2022-04-13T13:48:43.000Z</time>
      </trkpt>
      <trkpt lat="43.4609" lon="6.30062">
        <ele>171.3</ele>
        <time>2022-04-13T13:48:48.000Z</time>
      </trkpt>
      <trkpt lat="43.46087" lon="6.30058">
        <ele>171.8</ele>
        <time>2022-04-13T13:48:52.000Z</time>
      </trkpt>
      <trkpt lat="43.46083" lon="6.30053">
        <ele>172.3</ele>
        <time>2022-04-13T13:48:57.000Z</time>
      </trkpt>
      <trkpt lat="43.46079" lon="6.3005">
        <ele>172.9</ele>
        <time>2022-04-13T13:49:03.000Z</time>
      </trkpt>
      <trkpt lat="43.46075" lon="6.30051">
        <ele>173.4</ele>
        <time>2022-04-13T13:49:12.000Z</time>
      </trkpt>
      <trkpt lat="43.4607" lon="6.30054">
        <ele>173.8</ele>
        <time>2022-04-13T13:49:19.000Z</time>
      </trkpt>
      <trkpt lat="43.46066" lon="6.30059">
        <ele>174.2</ele>
        <time>2022-04-13T13:49:24.000Z</time>
      </trkpt>
      <trkpt lat="43.46062" lon="6.30062">
        <ele>174.8</ele>
        <time>2022-04-13T13:49:28.000Z</time>
      </trkpt>
      <trkpt lat="43.46058" lon="6.30067">
        <ele>175.5</ele>
        <time>2022-04-13T13:49:34.000Z</time>
      </trkpt>
      <trkpt lat="43.46054" lon="6.30071">
        <ele>176</ele>
        <time>2022-04-13T13:49:39.000Z</time>
      </trkpt>
      <trkpt lat="43.46049" lon="6.30076">
        <ele>176.4</ele>
        <time>2022-04-13T13:49:44.000Z</time>
      </trkpt>
      <trkpt lat="43.46046" lon="6.30079">
        <ele>176.7</ele>
        <time>2022-04-13T13:49:48.000Z</time>
      </trkpt>
      <trkpt lat="43.46041" lon="6.30084">
        <ele>177.3</ele>
        <time>2022-04-13T13:49:54.000Z</time>
      </trkpt>
      <trkpt lat="43.46037" lon="6.30088">
        <ele>177.8</ele>
        <time>2022-04-13T13:49:59.000Z</time>
      </trkpt>
      <trkpt lat="43.46033" lon="6.30092">
        <ele>178.2</ele>
        <time>2022-04-13T13:50:03.000Z</time>
      </trkpt>
      <trkpt lat="43.4603" lon="6.30096">
        <ele>178.5</ele>
        <time>2022-04-13T13:50:08.000Z</time>
      </trkpt>
      <trkpt lat="43.46025" lon="6.30099">
        <ele>178.9</ele>
        <time>2022-04-13T13:50:12.000Z</time>
      </trkpt>
      <trkpt lat="43.4602" lon="6.30103">
        <ele>179.5</ele>
        <time>2022-04-13T13:50:19.000Z</time>
      </trkpt>
      <trkpt lat="43.46016" lon="6.30107">
        <ele>179.9</ele>
        <time>2022-04-13T13:50:25.000Z</time>
      </trkpt>
      <trkpt lat="43.46011" lon="6.30109">
        <ele>180.2</ele>
        <time>2022-04-13T13:50:29.000Z</time>
      </trkpt>
      <trkpt lat="43.46007" lon="6.30113">
        <ele>180.6</ele>
        <time>2022-04-13T13:50:35.000Z</time>
      </trkpt>
      <trkpt lat="43.46002" lon="6.30116">
        <ele>181</ele>
        <time>2022-04-13T13:50:40.000Z</time>
      </trkpt>
      <trkpt lat="43.45998" lon="6.30118">
        <ele>181.3</ele>
        <time>2022-04-13T13:50:45.000Z</time>
      </trkpt>
      <trkpt lat="43.45993" lon="6.30119">
        <ele>181.7</ele>
        <time>2022-04-13T13:50:50.000Z</time>
      </trkpt>
      <trkpt lat="43.45988" lon="6.30117">
        <ele>182.1</ele>
        <time>2022-04-13T13:50:56.000Z</time>
      </trkpt>
      <trkpt lat="43.45982" lon="6.30116">
        <ele>182.3</ele>
        <time>2022-04-13T13:51:00.000Z</time>
      </trkpt>
      <trkpt lat="43.45978" lon="6.30113">
        <ele>182.4</ele>
        <time>2022-04-13T13:51:03.000Z</time>
      </trkpt>
      <trkpt lat="43.45974" lon="6.30109">
        <ele>182.7</ele>
        <time>2022-04-13T13:51:06.000Z</time>
      </trkpt>
      <trkpt lat="43.45971" lon="6.30104">
        <ele>183</ele>
        <time>2022-04-13T13:51:10.000Z</time>
      </trkpt>
      <trkpt lat="43.4597" lon="6.30097">
        <ele>183.3</ele>
        <time>2022-04-13T13:51:14.000Z</time>
      </trkpt>
      <trkpt lat="43.45971" lon="6.3009">
        <ele>183.8</ele>
        <time>2022-04-13T13:51:19.000Z</time>
      </trkpt>
      <trkpt lat="43.45971" lon="6.30083">
        <ele>184</ele>
        <time>2022-04-13T13:51:24.000Z</time>
      </trkpt>
      <trkpt lat="43.45971" lon="6.30076">
        <ele>184.3</ele>
        <time>2022-04-13T13:51:29.000Z</time>
      </trkpt>
      <trkpt lat="43.45973" lon="6.3007">
        <ele>184.6</ele>
        <time>2022-04-13T13:51:33.000Z</time>
      </trkpt>
      <trkpt lat="43.45973" lon="6.30063">
        <ele>184.9</ele>
        <time>2022-04-13T13:51:37.000Z</time>
      </trkpt>
      <trkpt lat="43.45974" lon="6.30056">
        <ele>185.2</ele>
        <time>2022-04-13T13:51:43.000Z</time>
      </trkpt>
      <trkpt lat="43.45974" lon="6.30049">
        <ele>185.4</ele>
        <time>2022-04-13T13:51:47.000Z</time>
      </trkpt>
      <trkpt lat="43.45976" lon="6.30043">
        <ele>185.5</ele>
        <time>2022-04-13T13:51:51.000Z</time>
      </trkpt>
      <trkpt lat="43.45977" lon="6.30037">
        <ele>185.6</ele>
        <time>2022-04-13T13:51:55.000Z</time>
      </trkpt>
      <trkpt lat="43.45977" lon="6.30029">
        <ele>185.9</ele>
        <time>2022-04-13T13:52:02.000Z</time>
      </trkpt>
      <trkpt lat="43.45978" lon="6.30023">
        <ele>186.1</ele>
        <time>2022-04-13T13:52:06.000Z</time>
      </trkpt>
      <trkpt lat="43.45981" lon="6.30016">
        <ele>186.3</ele>
        <time>2022-04-13T13:52:10.000Z</time>
      </trkpt>
      <trkpt lat="43.45981" lon="6.30009">
        <ele>186.6</ele>
        <time>2022-04-13T13:52:18.000Z</time>
      </trkpt>
      <trkpt lat="43.45981" lon="6.30003">
        <ele>186.8</ele>
        <time>2022-04-13T13:52:23.000Z</time>
      </trkpt>
      <trkpt lat="43.45983" lon="6.29997">
        <ele>187</ele>
        <time>2022-04-13T13:52:27.000Z</time>
      </trkpt>
      <trkpt lat="43.45984" lon="6.29991">
        <ele>187.4</ele>
        <time>2022-04-13T13:52:32.000Z</time>
      </trkpt>
      <trkpt lat="43.45983" lon="6.29983">
        <ele>187.9</ele>
        <time>2022-04-13T13:52:38.000Z</time>
      </trkpt>
      <trkpt lat="43.45982" lon="6.29977">
        <ele>188.2</ele>
        <time>2022-04-13T13:52:44.000Z</time>
      </trkpt>
      <trkpt lat="43.45981" lon="6.2997">
        <ele>188.4</ele>
        <time>2022-04-13T13:52:49.000Z</time>
      </trkpt>
      <trkpt lat="43.4598" lon="6.29964">
        <ele>188.5</ele>
        <time>2022-04-13T13:52:54.000Z</time>
      </trkpt>
      <trkpt lat="43.45977" lon="6.29958">
        <ele>188.8</ele>
        <time>2022-04-13T13:52:59.000Z</time>
      </trkpt>
      <trkpt lat="43.45973" lon="6.29953">
        <ele>189.1</ele>
        <time>2022-04-13T13:53:03.000Z</time>
      </trkpt>
      <trkpt lat="43.45969" lon="6.29949">
        <ele>189.3</ele>
        <time>2022-04-13T13:53:08.000Z</time>
      </trkpt>
      <trkpt lat="43.45964" lon="6.29948">
        <ele>189.9</ele>
        <time>2022-04-13T13:53:14.000Z</time>
      </trkpt>
      <trkpt lat="43.45959" lon="6.29947">
        <ele>190.6</ele>
        <time>2022-04-13T13:53:21.000Z</time>
      </trkpt>
      <trkpt lat="43.45953" lon="6.29948">
        <ele>191</ele>
        <time>2022-04-13T13:53:27.000Z</time>
      </trkpt>
      <trkpt lat="43.45948" lon="6.29949">
        <ele>191.4</ele>
        <time>2022-04-13T13:53:32.000Z</time>
      </trkpt>
      <trkpt lat="43.45943" lon="6.29949">
        <ele>191.7</ele>
        <time>2022-04-13T13:53:37.000Z</time>
      </trkpt>
      <trkpt lat="43.45938" lon="6.2995">
        <ele>191.9</ele>
        <time>2022-04-13T13:53:42.000Z</time>
      </trkpt>
      <trkpt lat="43.45933" lon="6.29951">
        <ele>192.2</ele>
        <time>2022-04-13T13:53:47.000Z</time>
      </trkpt>
      <trkpt lat="43.45928" lon="6.2995">
        <ele>192.3</ele>
        <time>2022-04-13T13:53:51.000Z</time>
      </trkpt>
      <trkpt lat="43.45923" lon="6.2995">
        <ele>192.6</ele>
        <time>2022-04-13T13:53:55.000Z</time>
      </trkpt>
      <trkpt lat="43.45918" lon="6.29951">
        <ele>192.9</ele>
        <time>2022-04-13T13:53:59.000Z</time>
      </trkpt>
      <trkpt lat="43.45913" lon="6.29953">
        <ele>193.3</ele>
        <time>2022-04-13T13:54:04.000Z</time>
      </trkpt>
      <trkpt lat="43.45908" lon="6.29954">
        <ele>193.7</ele>
        <time>2022-04-13T13:54:09.000Z</time>
      </trkpt>
      <trkpt lat="43.45902" lon="6.29954">
        <ele>194.2</ele>
        <time>2022-04-13T13:54:14.000Z</time>
      </trkpt>
      <trkpt lat="43.45897" lon="6.29954">
        <ele>194.9</ele>
        <time>2022-04-13T13:54:19.000Z</time>
      </trkpt>
      <trkpt lat="43.45892" lon="6.29954">
        <ele>195.5</ele>
        <time>2022-04-13T13:54:24.000Z</time>
      </trkpt>
      <trkpt lat="43.45887" lon="6.29955">
        <ele>195.8</ele>
        <time>2022-04-13T13:54:29.000Z</time>
      </trkpt>
      <trkpt lat="43.45881" lon="6.29954">
        <ele>196.1</ele>
        <time>2022-04-13T13:54:35.000Z</time>
      </trkpt>
      <trkpt lat="43.45876" lon="6.29954">
        <ele>196.4</ele>
        <time>2022-04-13T13:54:39.000Z</time>
      </trkpt>
      <trkpt lat="43.45871" lon="6.29953">
        <ele>196.8</ele>
        <time>2022-04-13T13:54:43.000Z</time>
      </trkpt>
      <trkpt lat="43.45866" lon="6.29951">
        <ele>197.1</ele>
        <time>2022-04-13T13:54:47.000Z</time>
      </trkpt>
      <trkpt lat="43.45862" lon="6.29947">
        <ele>197.6</ele>
        <time>2022-04-13T13:54:51.000Z</time>
      </trkpt>
      <trkpt lat="43.4586" lon="6.2994">
        <ele>198.1</ele>
        <time>2022-04-13T13:54:56.000Z</time>
      </trkpt>
      <trkpt lat="43.45858" lon="6.29934">
        <ele>198.6</ele>
        <time>2022-04-13T13:55:01.000Z</time>
      </trkpt>
      <trkpt lat="43.45859" lon="6.29926">
        <ele>199.3</ele>
        <time>2022-04-13T13:55:07.000Z</time>
      </trkpt>
      <trkpt lat="43.4586" lon="6.29919">
        <ele>199.8</ele>
        <time>2022-04-13T13:55:12.000Z</time>
      </trkpt>
      <trkpt lat="43.45861" lon="6.29911">
        <ele>200.2</ele>
        <time>2022-04-13T13:55:17.000Z</time>
      </trkpt>
      <trkpt lat="43.45862" lon="6.29905">
        <ele>200.6</ele>
        <time>2022-04-13T13:55:23.000Z</time>
      </trkpt>
      <trkpt lat="43.45859" lon="6.29899">
        <ele>201.2</ele>
        <time>2022-04-13T13:55:33.000Z</time>
      </trkpt>
      <trkpt lat="43.45859" lon="6.29892">
        <ele>201.6</ele>
        <time>2022-04-13T13:55:49.000Z</time>
      </trkpt>
      <trkpt lat="43.45863" lon="6.29889">
        <ele>202</ele>
        <time>2022-04-13T13:56:07.000Z</time>
      </trkpt>
      <trkpt lat="43.45866" lon="6.29883">
        <ele>202.5</ele>
        <time>2022-04-13T13:58:02.000Z</time>
      </trkpt>
      <trkpt lat="43.45867" lon="6.29877">
        <ele>202.8</ele>
        <time>2022-04-13T13:58:09.000Z</time>
      </trkpt>
      <trkpt lat="43.45869" lon="6.2987">
        <ele>202.9</ele>
        <time>2022-04-13T13:58:15.000Z</time>
      </trkpt>
      <trkpt lat="43.4587" lon="6.29864">
        <ele>203</ele>
        <time>2022-04-13T13:58:20.000Z</time>
      </trkpt>
      <trkpt lat="43.45872" lon="6.29858">
        <ele>203</ele>
        <time>2022-04-13T13:58:25.000Z</time>
      </trkpt>
      <trkpt lat="43.45874" lon="6.29851">
        <ele>203.2</ele>
        <time>2022-04-13T13:58:30.000Z</time>
      </trkpt>
      <trkpt lat="43.45876" lon="6.29845">
        <ele>203.4</ele>
        <time>2022-04-13T13:58:36.000Z</time>
      </trkpt>
      <trkpt lat="43.45877" lon="6.29838">
        <ele>203.5</ele>
        <time>2022-04-13T13:58:42.000Z</time>
      </trkpt>
      <trkpt lat="43.45878" lon="6.29831">
        <ele>203.5</ele>
        <time>2022-04-13T13:58:47.000Z</time>
      </trkpt>
      <trkpt lat="43.45879" lon="6.29824">
        <ele>203.6</ele>
        <time>2022-04-13T13:58:52.000Z</time>
      </trkpt>
      <trkpt lat="43.45881" lon="6.29818">
        <ele>203.8</ele>
        <time>2022-04-13T13:58:56.000Z</time>
      </trkpt>
      <trkpt lat="43.45883" lon="6.29811">
        <ele>203.9</ele>
        <time>2022-04-13T13:59:01.000Z</time>
      </trkpt>
      <trkpt lat="43.45885" lon="6.29804">
        <ele>204</ele>
        <time>2022-04-13T13:59:06.000Z</time>
      </trkpt>
      <trkpt lat="43.45887" lon="6.29797">
        <ele>204</ele>
        <time>2022-04-13T13:59:10.000Z</time>
      </trkpt>
      <trkpt lat="43.45889" lon="6.29791">
        <ele>204.2</ele>
        <time>2022-04-13T13:59:14.000Z</time>
      </trkpt>
      <trkpt lat="43.4589" lon="6.29784">
        <ele>204.3</ele>
        <time>2022-04-13T13:59:19.000Z</time>
      </trkpt>
      <trkpt lat="43.45891" lon="6.29778">
        <ele>204.5</ele>
        <time>2022-04-13T13:59:24.000Z</time>
      </trkpt>
      <trkpt lat="43.45892" lon="6.29772">
        <ele>204.6</ele>
        <time>2022-04-13T13:59:28.000Z</time>
      </trkpt>
      <trkpt lat="43.45893" lon="6.29766">
        <ele>204.6</ele>
        <time>2022-04-13T13:59:32.000Z</time>
      </trkpt>
      <trkpt lat="43.45895" lon="6.29759">
        <ele>204.7</ele>
        <time>2022-04-13T13:59:37.000Z</time>
      </trkpt>
      <trkpt lat="43.45895" lon="6.29752">
        <ele>204.8</ele>
        <time>2022-04-13T13:59:42.000Z</time>
      </trkpt>
      <trkpt lat="43.45897" lon="6.29746">
        <ele>204.8</ele>
        <time>2022-04-13T13:59:47.000Z</time>
      </trkpt>
      <trkpt lat="43.45899" lon="6.29739">
        <ele>204.8</ele>
        <time>2022-04-13T13:59:52.000Z</time>
      </trkpt>
      <trkpt lat="43.45901" lon="6.29732">
        <ele>204.7</ele>
        <time>2022-04-13T13:59:57.000Z</time>
      </trkpt>
      <trkpt lat="43.45903" lon="6.29725">
        <ele>204.6</ele>
        <time>2022-04-13T14:00:01.000Z</time>
      </trkpt>
      <trkpt lat="43.45904" lon="6.2972">
        <ele>204.4</ele>
        <time>2022-04-13T14:00:05.000Z</time>
      </trkpt>
      <trkpt lat="43.45906" lon="6.29713">
        <ele>204.1</ele>
        <time>2022-04-13T14:00:09.000Z</time>
      </trkpt>
      <trkpt lat="43.45907" lon="6.29706">
        <ele>204</ele>
        <time>2022-04-13T14:00:14.000Z</time>
      </trkpt>
      <trkpt lat="43.45908" lon="6.29699">
        <ele>203.9</ele>
        <time>2022-04-13T14:00:19.000Z</time>
      </trkpt>
      <trkpt lat="43.45909" lon="6.29691">
        <ele>203.8</ele>
        <time>2022-04-13T14:00:24.000Z</time>
      </trkpt>
      <trkpt lat="43.45911" lon="6.29685">
        <ele>203.7</ele>
        <time>2022-04-13T14:00:29.000Z</time>
      </trkpt>
      <trkpt lat="43.45912" lon="6.29679">
        <ele>203.4</ele>
        <time>2022-04-13T14:00:33.000Z</time>
      </trkpt>
      <trkpt lat="43.45915" lon="6.29672">
        <ele>203.2</ele>
        <time>2022-04-13T14:00:38.000Z</time>
      </trkpt>
      <trkpt lat="43.45917" lon="6.29667">
        <ele>203.2</ele>
        <time>2022-04-13T14:00:41.000Z</time>
      </trkpt>
      <trkpt lat="43.45919" lon="6.2966">
        <ele>203.1</ele>
        <time>2022-04-13T14:00:45.000Z</time>
      </trkpt>
      <trkpt lat="43.4592" lon="6.29653">
        <ele>203.2</ele>
        <time>2022-04-13T14:00:49.000Z</time>
      </trkpt>
      <trkpt lat="43.45922" lon="6.29647">
        <ele>203.4</ele>
        <time>2022-04-13T14:00:54.000Z</time>
      </trkpt>
      <trkpt lat="43.45924" lon="6.29641">
        <ele>203.2</ele>
        <time>2022-04-13T14:00:59.000Z</time>
      </trkpt>
      <trkpt lat="43.45926" lon="6.29635">
        <ele>203</ele>
        <time>2022-04-13T14:01:03.000Z</time>
      </trkpt>
      <trkpt lat="43.45928" lon="6.29629">
        <ele>202.9</ele>
        <time>2022-04-13T14:01:07.000Z</time>
      </trkpt>
      <trkpt lat="43.45929" lon="6.29623">
        <ele>202.8</ele>
        <time>2022-04-13T14:01:11.000Z</time>
      </trkpt>
      <trkpt lat="43.45931" lon="6.29617">
        <ele>202.7</ele>
        <time>2022-04-13T14:01:15.000Z</time>
      </trkpt>
      <trkpt lat="43.45933" lon="6.29611">
        <ele>202.7</ele>
        <time>2022-04-13T14:01:20.000Z</time>
      </trkpt>
      <trkpt lat="43.45933" lon="6.29604">
        <ele>202.8</ele>
        <time>2022-04-13T14:01:25.000Z</time>
      </trkpt>
      <trkpt lat="43.45933" lon="6.29598">
        <ele>202.8</ele>
        <time>2022-04-13T14:01:30.000Z</time>
      </trkpt>
      <trkpt lat="43.45934" lon="6.2959">
        <ele>202.7</ele>
        <time>2022-04-13T14:01:35.000Z</time>
      </trkpt>
      <trkpt lat="43.45936" lon="6.29583">
        <ele>202.7</ele>
        <time>2022-04-13T14:01:39.000Z</time>
      </trkpt>
      <trkpt lat="43.45938" lon="6.29576">
        <ele>202.8</ele>
        <time>2022-04-13T14:01:44.000Z</time>
      </trkpt>
      <trkpt lat="43.45938" lon="6.29569">
        <ele>202.8</ele>
        <time>2022-04-13T14:01:49.000Z</time>
      </trkpt>
      <trkpt lat="43.45939" lon="6.29561">
        <ele>202.6</ele>
        <time>2022-04-13T14:01:53.000Z</time>
      </trkpt>
      <trkpt lat="43.45939" lon="6.29555">
        <ele>202.4</ele>
        <time>2022-04-13T14:01:57.000Z</time>
      </trkpt>
      <trkpt lat="43.45939" lon="6.29547">
        <ele>202.2</ele>
        <time>2022-04-13T14:02:02.000Z</time>
      </trkpt>
      <trkpt lat="43.45938" lon="6.2954">
        <ele>201.7</ele>
        <time>2022-04-13T14:02:08.000Z</time>
      </trkpt>
      <trkpt lat="43.45938" lon="6.29533">
        <ele>201.4</ele>
        <time>2022-04-13T14:02:13.000Z</time>
      </trkpt>
      <trkpt lat="43.45938" lon="6.29525">
        <ele>201.3</ele>
        <time>2022-04-13T14:02:18.000Z</time>
      </trkpt>
      <trkpt lat="43.45939" lon="6.29519">
        <ele>201.1</ele>
        <time>2022-04-13T14:02:22.000Z</time>
      </trkpt>
      <trkpt lat="43.4594" lon="6.29512">
        <ele>200.9</ele>
        <time>2022-04-13T14:02:26.000Z</time>
      </trkpt>
      <trkpt lat="43.45941" lon="6.29505">
        <ele>200.8</ele>
        <time>2022-04-13T14:02:30.000Z</time>
      </trkpt>
      <trkpt lat="43.45941" lon="6.29498">
        <ele>200.6</ele>
        <time>2022-04-13T14:02:36.000Z</time>
      </trkpt>
      <trkpt lat="43.45941" lon="6.29492">
        <ele>200.5</ele>
        <time>2022-04-13T14:02:40.000Z</time>
      </trkpt>
      <trkpt lat="43.45941" lon="6.29483">
        <ele>200.4</ele>
        <time>2022-04-13T14:02:44.000Z</time>
      </trkpt>
      <trkpt lat="43.45939" lon="6.29476">
        <ele>200.3</ele>
        <time>2022-04-13T14:02:48.000Z</time>
      </trkpt>
      <trkpt lat="43.45938" lon="6.29469">
        <ele>200.2</ele>
        <time>2022-04-13T14:02:52.000Z</time>
      </trkpt>
      <trkpt lat="43.45936" lon="6.29462">
        <ele>200.2</ele>
        <time>2022-04-13T14:02:56.000Z</time>
      </trkpt>
      <trkpt lat="43.45935" lon="6.29455">
        <ele>199.9</ele>
        <time>2022-04-13T14:03:00.000Z</time>
      </trkpt>
      <trkpt lat="43.45934" lon="6.29448">
        <ele>199.7</ele>
        <time>2022-04-13T14:03:04.000Z</time>
      </trkpt>
      <trkpt lat="43.45934" lon="6.29441">
        <ele>199.5</ele>
        <time>2022-04-13T14:03:09.000Z</time>
      </trkpt>
      <trkpt lat="43.45934" lon="6.29434">
        <ele>199.4</ele>
        <time>2022-04-13T14:03:14.000Z</time>
      </trkpt>
      <trkpt lat="43.45931" lon="6.29428">
        <ele>199.3</ele>
        <time>2022-04-13T14:03:19.000Z</time>
      </trkpt>
      <trkpt lat="43.45929" lon="6.29422">
        <ele>199.2</ele>
        <time>2022-04-13T14:03:23.000Z</time>
      </trkpt>
      <trkpt lat="43.45929" lon="6.29415">
        <ele>198.9</ele>
        <time>2022-04-13T14:03:27.000Z</time>
      </trkpt>
      <trkpt lat="43.45928" lon="6.29409">
        <ele>198.6</ele>
        <time>2022-04-13T14:03:31.000Z</time>
      </trkpt>
      <trkpt lat="43.45926" lon="6.29403">
        <ele>198.3</ele>
        <time>2022-04-13T14:03:35.000Z</time>
      </trkpt>
      <trkpt lat="43.45924" lon="6.29397">
        <ele>197.9</ele>
        <time>2022-04-13T14:03:42.000Z</time>
      </trkpt>
      <trkpt lat="43.45927" lon="6.29392">
        <ele>197.5</ele>
        <time>2022-04-13T14:03:55.000Z</time>
      </trkpt>
      <trkpt lat="43.45922" lon="6.29391">
        <ele>197.2</ele>
        <time>2022-04-13T14:04:09.000Z</time>
      </trkpt>
      <trkpt lat="43.45919" lon="6.29387">
        <ele>196.9</ele>
        <time>2022-04-13T14:04:15.000Z</time>
      </trkpt>
      <trkpt lat="43.45915" lon="6.29384">
        <ele>196.6</ele>
        <time>2022-04-13T14:04:22.000Z</time>
      </trkpt>
      <trkpt lat="43.45912" lon="6.29389">
        <ele>196.7</ele>
        <time>2022-04-13T14:04:44.000Z</time>
      </trkpt>
      <trkpt lat="43.45908" lon="6.29394">
        <ele>196.9</ele>
        <time>2022-04-13T14:04:54.000Z</time>
      </trkpt>
      <trkpt lat="43.45906" lon="6.29399">
        <ele>196.9</ele>
        <time>2022-04-13T14:05:00.000Z</time>
      </trkpt>
      <trkpt lat="43.45907" lon="6.29405">
        <ele>196.6</ele>
        <time>2022-04-13T14:05:07.000Z</time>
      </trkpt>
      <trkpt lat="43.45902" lon="6.29404">
        <ele>195.9</ele>
        <time>2022-04-13T14:05:53.000Z</time>
      </trkpt>
      <trkpt lat="43.45898" lon="6.29406">
        <ele>196</ele>
        <time>2022-04-13T14:06:26.000Z</time>
      </trkpt>
      <trkpt lat="43.45899" lon="6.29412">
        <ele>196.1</ele>
        <time>2022-04-13T14:06:33.000Z</time>
      </trkpt>
      <trkpt lat="43.45899" lon="6.29419">
        <ele>195.9</ele>
        <time>2022-04-13T14:06:42.000Z</time>
      </trkpt>
      <trkpt lat="43.45896" lon="6.29425">
        <ele>195.7</ele>
        <time>2022-04-13T14:06:53.000Z</time>
      </trkpt>
      <trkpt lat="43.45895" lon="6.29431">
        <ele>195.7</ele>
        <time>2022-04-13T14:06:58.000Z</time>
      </trkpt>
      <trkpt lat="43.45893" lon="6.29438">
        <ele>196.1</ele>
        <time>2022-04-13T14:07:04.000Z</time>
      </trkpt>
      <trkpt lat="43.45892" lon="6.29446">
        <ele>196.4</ele>
        <time>2022-04-13T14:07:11.000Z</time>
      </trkpt>
      <trkpt lat="43.45889" lon="6.29451">
        <ele>196.3</ele>
        <time>2022-04-13T14:07:15.000Z</time>
      </trkpt>
      <trkpt lat="43.45887" lon="6.29456">
        <ele>196.1</ele>
        <time>2022-04-13T14:07:19.000Z</time>
      </trkpt>
      <trkpt lat="43.45883" lon="6.29461">
        <ele>195.7</ele>
        <time>2022-04-13T14:07:24.000Z</time>
      </trkpt>
      <trkpt lat="43.4588" lon="6.29467">
        <ele>195</ele>
        <time>2022-04-13T14:07:31.000Z</time>
      </trkpt>
      <trkpt lat="43.45876" lon="6.29471">
        <ele>193.7</ele>
        <time>2022-04-13T14:08:06.000Z</time>
      </trkpt>
    </trkseg>
  </trk>
</gpx>